PWSweather.com
Personal Weather Stations
Station Observations
OZIERI
Punta Idda, OzieriIT

Punta IddaOzieriIT

Lat: 40.584142, Lon: 9.007657999999992

Elevation: 1483

Station Type: Lacrosse ws2350

www.ozierimeteo.altervista.com

High Low Average
Temperature 49.1°F9.5°F 44.4°F6.9°F 46.3°F7.9°F
Dew Point 44.4°F6.9°F 33.8°F1.0°F 40.2°F4.6°F
Winds 7.4 mph WNW11.9 mph WNW 0.2 mph 0.3 mph 2.7 mph 4.3 mph
Wind Gusts 14.8 mph23.8 mph -- 5.0 mph8.0 mph
Humidity 91% 60% 80%
Pressure 30.20 in1022.70 in 30.05 in1017.60 in -
Precipitation 4.32 in109.70 in - -
Hour Temp Dew Point Humidity Winds Wind Gusts Pressure Precip Precip Rate Daily Precip Total
12:02 AM 47.5°F8.6°C 44.4°F6.9°C 89% 0.2 mph SSW0.3 kmh SSW -- 30.05 in1017.6 mb 0.00 in0.0 mm 0.00 in0.0 mm 0.00 in0.0 mm
12:04 AM 47.5°F8.6°C 44.4°F6.9°C 89% 0.2 mph NNE0.3 kmh NNE -- 30.05 in1017.6 mb 0.00 in0.0 mm 0.00 in0.0 mm 0.00 in0.0 mm
12:06 AM 47.5°F8.6°C 44.4°F6.9°C 89% 0.2 mph WNW0.3 kmh WNW -- 30.05 in1017.6 mb 0.00 in0.0 mm 0.00 in0.0 mm 0.00 in0.0 mm
12:08 AM 47.5°F8.6°C 44.4°F6.9°C 89% 0.4 mph W0.6 kmh W 1.8 mph2.9 kmh 30.05 in1017.6 mb 0.00 in0.0 mm 0.00 in0.0 mm 0.00 in0.0 mm
12:10 AM 47.5°F8.6°C 44.4°F6.9°C 89% 0.4 mph W0.6 kmh W 2.0 mph3.2 kmh 30.05 in1017.6 mb 0.00 in0.0 mm 0.00 in0.0 mm 0.00 in0.0 mm
12:13 AM 47.5°F8.6°C 44.4°F6.9°C 89% 0.4 mph SSW0.6 kmh SSW 2.2 mph3.5 kmh 30.06 in1017.9 mb 0.00 in0.0 mm 0.00 in0.0 mm 0.00 in0.0 mm
12:15 AM 47.5°F8.6°C 44.4°F6.9°C 89% 0.2 mph NNE0.3 kmh NNE -- 30.05 in1017.6 mb 0.00 in0.0 mm 0.00 in0.0 mm 0.00 in0.0 mm
12:17 AM 47.5°F8.6°C 44.4°F6.9°C 89% 0.7 mph W1.1 kmh W 2.7 mph4.3 kmh 30.05 in1017.6 mb 0.00 in0.0 mm 0.00 in0.0 mm 0.00 in0.0 mm
12:19 AM 47.5°F8.6°C 44.4°F6.9°C 89% 0.4 mph 0.6 kmh 1.3 mph2.1 kmh 30.05 in1017.6 mb 0.00 in0.0 mm 0.00 in0.0 mm 0.00 in0.0 mm
12:21 AM 47.5°F8.6°C 44.4°F6.9°C 89% 0.4 mph SSW0.6 kmh SSW 1.6 mph2.6 kmh 30.06 in1017.9 mb 0.00 in0.0 mm 0.00 in0.0 mm 0.00 in0.0 mm
12:23 AM 47.5°F8.6°C 44.4°F6.9°C 89% 0.2 mph WSW0.3 kmh WSW -- 30.06 in1017.9 mb 0.00 in0.0 mm 0.00 in0.0 mm 0.00 in0.0 mm
12:25 AM 47.5°F8.6°C 44.4°F6.9°C 89% 0.7 mph W1.1 kmh W 2.2 mph3.5 kmh 30.06 in1017.9 mb 0.00 in0.0 mm 0.00 in0.0 mm 0.00 in0.0 mm
12:28 AM 47.5°F8.6°C 44.4°F6.9°C 89% 0.9 mph WSW1.4 kmh WSW 3.4 mph5.5 kmh 30.06 in1017.9 mb 0.00 in0.0 mm 0.00 in0.0 mm 0.00 in0.0 mm
12:30 AM 47.5°F8.6°C 44.4°F6.9°C 89% 1.1 mph W1.8 kmh W 2.2 mph3.5 kmh 30.06 in1017.9 mb 0.00 in0.0 mm 0.00 in0.0 mm 0.00 in0.0 mm
12:32 AM 47.5°F8.6°C 44.4°F6.9°C 89% 0.7 mph W1.1 kmh W -- 30.06 in1017.9 mb 0.00 in0.0 mm 0.00 in0.0 mm 0.00 in0.0 mm
12:34 AM 47.5°F8.6°C 44.4°F6.9°C 89% 0.4 mph NNW0.6 kmh NNW -- 30.06 in1017.9 mb 0.00 in0.0 mm 0.00 in0.0 mm 0.00 in0.0 mm
12:37 AM 47.5°F8.6°C 44.4°F6.9°C 89% 0.2 mph NW0.3 kmh NW -- 30.06 in1017.9 mb 0.00 in0.0 mm 0.00 in0.0 mm 0.00 in0.0 mm
12:39 AM 47.5°F8.6°C 44.4°F6.9°C 89% 0.4 mph W0.6 kmh W 0.9 mph1.4 kmh 30.06 in1017.9 mb 0.00 in0.0 mm 0.00 in0.0 mm 0.00 in0.0 mm
12:41 AM 47.5°F8.6°C 44.4°F6.9°C 89% 0.2 mph W0.3 kmh W 1.6 mph2.6 kmh 30.06 in1017.9 mb 0.00 in0.0 mm 0.00 in0.0 mm 0.00 in0.0 mm
12:43 AM 47.5°F8.6°C 44.4°F6.9°C 89% 0.2 mph WNW0.3 kmh WNW -- 30.06 in1017.9 mb 0.00 in0.0 mm 0.00 in0.0 mm 0.00 in0.0 mm
12:46 AM 47.5°F8.6°C 44.4°F6.9°C 89% 0.4 mph NNW0.6 kmh NNW 1.8 mph2.9 kmh 30.06 in1017.9 mb 0.00 in0.0 mm 0.00 in0.0 mm 0.00 in0.0 mm
12:48 AM 47.5°F8.6°C 44.4°F6.9°C 89% 0.2 mph NW0.3 kmh NW -- 30.06 in1017.9 mb 0.00 in0.0 mm 0.00 in0.0 mm 0.00 in0.0 mm
12:50 AM 47.5°F8.6°C 44.4°F6.9°C 89% 0.4 mph WSW0.6 kmh WSW 1.3 mph2.1 kmh 30.06 in1017.9 mb 0.00 in0.0 mm 0.00 in0.0 mm 0.00 in0.0 mm
12:52 AM 47.5°F8.6°C 44.4°F6.9°C 89% 0.7 mph WSW1.1 kmh WSW 2.5 mph4.0 kmh 30.06 in1017.9 mb 0.00 in0.0 mm 0.00 in0.0 mm 0.00 in0.0 mm
12:55 AM 47.5°F8.6°C 44.4°F6.9°C 89% 0.4 mph WSW0.6 kmh WSW -- 30.06 in1017.9 mb 0.02 in0.5 mm 0.40 in10.2 mm 0.02 in0.5 mm
12:57 AM 47.5°F8.6°C 44.4°F6.9°C 89% 0.4 mph WSW0.6 kmh WSW 1.3 mph2.1 kmh 30.06 in1017.9 mb 0.02 in0.5 mm 0.00 in0.0 mm 0.02 in0.5 mm
12:59 AM 47.5°F8.6°C 44.4°F6.9°C 89% 0.7 mph W1.1 kmh W 1.3 mph2.1 kmh 30.06 in1017.9 mb 0.02 in0.5 mm 0.00 in0.0 mm 0.02 in0.5 mm
01:01 AM 47.5°F8.6°C 44.4°F6.9°C 89% 0.4 mph W0.6 kmh W 0.9 mph1.4 kmh 30.06 in1017.9 mb 0.02 in0.5 mm 0.00 in0.0 mm 0.02 in0.5 mm
01:03 AM 47.3°F8.5°C 44.2°F6.8°C 89% 0.4 mph W0.6 kmh W 2.0 mph3.2 kmh 30.06 in1017.9 mb 0.02 in0.5 mm 0.00 in0.0 mm 0.02 in0.5 mm
01:06 AM 47.3°F8.5°C 44.2°F6.8°C 89% 0.7 mph W1.1 kmh W 2.0 mph3.2 kmh 30.06 in1017.9 mb 0.02 in0.5 mm 0.00 in0.0 mm 0.02 in0.5 mm
01:08 AM 47.3°F8.5°C 44.2°F6.8°C 89% 0.4 mph W0.6 kmh W 0.7 mph1.1 kmh 30.06 in1017.9 mb 0.02 in0.5 mm 0.00 in0.0 mm 0.02 in0.5 mm
01:10 AM 47.3°F8.5°C 44.2°F6.8°C 89% 0.2 mph W0.3 kmh W -- 30.06 in1017.9 mb 0.02 in0.5 mm 0.00 in0.0 mm 0.02 in0.5 mm
01:12 AM 47.3°F8.5°C 44.2°F6.8°C 89% 0.4 mph W0.6 kmh W 2.0 mph3.2 kmh 30.06 in1017.9 mb 0.02 in0.5 mm 0.00 in0.0 mm 0.02 in0.5 mm
01:15 AM 47.3°F8.5°C 44.2°F6.8°C 89% 0.2 mph NNW0.3 kmh NNW -- 30.07 in1018.3 mb 0.04 in1.0 mm 0.40 in10.2 mm 0.04 in1.0 mm
01:17 AM 47.1°F8.4°C 44.1°F6.7°C 89% 0.7 mph WNW1.1 kmh WNW 1.8 mph2.9 kmh 30.07 in1018.3 mb 0.04 in1.0 mm 0.00 in0.0 mm 0.04 in1.0 mm
01:19 AM 47.1°F8.4°C 44.1°F6.7°C 89% 1.1 mph SSW1.8 kmh SSW 2.9 mph4.7 kmh 30.07 in1018.3 mb 0.04 in1.0 mm 0.00 in0.0 mm 0.04 in1.0 mm
01:22 AM 47.1°F8.4°C 44.1°F6.7°C 89% 0.7 mph NW1.1 kmh NW 1.6 mph2.6 kmh 30.07 in1018.3 mb 0.04 in1.0 mm 0.00 in0.0 mm 0.04 in1.0 mm
01:24 AM 47.1°F8.4°C 44.1°F6.7°C 89% 0.7 mph W1.1 kmh W 1.8 mph2.9 kmh 30.07 in1018.3 mb 0.04 in1.0 mm 0.00 in0.0 mm 0.04 in1.0 mm
01:26 AM 47.1°F8.4°C 44.1°F6.7°C 89% 0.9 mph W1.4 kmh W 2.2 mph3.5 kmh 30.07 in1018.3 mb 0.04 in1.0 mm 0.00 in0.0 mm 0.04 in1.0 mm
01:28 AM 47.1°F8.4°C 44.1°F6.7°C 89% 0.7 mph NW1.1 kmh NW 1.6 mph2.6 kmh 30.08 in1018.6 mb 0.04 in1.0 mm 0.00 in0.0 mm 0.04 in1.0 mm
01:30 AM 47.1°F8.4°C 44.1°F6.7°C 89% 1.3 mph WNW2.1 kmh WNW 3.1 mph5.0 kmh 30.08 in1018.6 mb 0.06 in1.5 mm 0.60 in15.2 mm 0.06 in1.5 mm
01:32 AM 47.1°F8.4°C 44.1°F6.7°C 89% 1.1 mph WSW1.8 kmh WSW 2.0 mph3.2 kmh 30.08 in1018.6 mb 0.06 in1.5 mm 0.00 in0.0 mm 0.06 in1.5 mm
01:35 AM 47.1°F8.4°C 44.1°F6.7°C 89% 1.1 mph WSW1.8 kmh WSW 2.0 mph3.2 kmh 30.07 in1018.3 mb 0.06 in1.5 mm 0.00 in0.0 mm 0.06 in1.5 mm
01:37 AM 47.1°F8.4°C 44.1°F6.7°C 89% 0.9 mph WSW1.4 kmh WSW 2.0 mph3.2 kmh 30.07 in1018.3 mb 0.06 in1.5 mm 0.00 in0.0 mm 0.06 in1.5 mm
01:39 AM 47.1°F8.4°C 44.1°F6.7°C 89% 0.9 mph WSW1.4 kmh WSW 2.5 mph4.0 kmh 30.07 in1018.3 mb 0.06 in1.5 mm 0.00 in0.0 mm 0.06 in1.5 mm
01:41 AM 46.9°F8.3°C 43.9°F6.6°C 89% 0.9 mph WNW1.4 kmh WNW 1.8 mph2.9 kmh 30.07 in1018.3 mb 0.06 in1.5 mm 0.00 in0.0 mm 0.06 in1.5 mm
01:44 AM 46.9°F8.3°C 43.9°F6.6°C 89% 0.9 mph WSW1.4 kmh WSW 2.0 mph3.2 kmh 30.07 in1018.3 mb 0.06 in1.5 mm 0.00 in0.0 mm 0.06 in1.5 mm
01:46 AM 46.9°F8.3°C 43.9°F6.6°C 89% 0.7 mph W1.1 kmh W 1.3 mph2.1 kmh 30.07 in1018.3 mb 0.06 in1.5 mm 0.00 in0.0 mm 0.06 in1.5 mm
01:48 AM 46.9°F8.3°C 43.9°F6.6°C 89% 0.4 mph WSW0.6 kmh WSW 1.3 mph2.1 kmh 30.07 in1018.3 mb 0.06 in1.5 mm 0.00 in0.0 mm 0.06 in1.5 mm
01:50 AM 46.9°F8.3°C 43.9°F6.6°C 89% 0.4 mph SSE0.6 kmh SSE 0.7 mph1.1 kmh 30.07 in1018.3 mb 0.06 in1.5 mm 0.00 in0.0 mm 0.06 in1.5 mm
01:52 AM 46.9°F8.3°C 43.9°F6.6°C 89% 0.2 mph ESE0.3 kmh ESE -- 30.07 in1018.3 mb 0.08 in2.0 mm 0.60 in15.2 mm 0.08 in2.0 mm
01:54 AM 46.9°F8.3°C 43.9°F6.6°C 89% 0.2 mph W0.3 kmh W -- 30.07 in1018.3 mb 0.06 in1.5 mm 0.00 in0.0 mm 0.08 in2.0 mm
01:56 AM 46.9°F8.3°C 43.9°F6.6°C 89% 0.2 mph WNW0.3 kmh WNW -- 30.07 in1018.3 mb 0.06 in1.5 mm 0.00 in0.0 mm 0.08 in2.0 mm
01:59 AM 46.9°F8.3°C 43.9°F6.6°C 89% 0.7 mph W1.1 kmh W 1.6 mph2.6 kmh 30.07 in1018.3 mb 0.06 in1.5 mm 0.00 in0.0 mm 0.08 in2.0 mm
02:01 AM 46.8°F8.2°C 43.7°F6.5°C 89% 0.4 mph WNW0.6 kmh WNW 1.3 mph2.1 kmh 30.07 in1018.3 mb 0.06 in1.5 mm 0.00 in0.0 mm 0.08 in2.0 mm
02:05 AM 46.8°F8.2°C 43.7°F6.5°C 89% 0.4 mph WNW0.6 kmh WNW -- 30.07 in1018.3 mb 0.06 in1.5 mm 0.00 in0.0 mm 0.08 in2.0 mm
02:07 AM 46.6°F8.1°C 43.5°F6.4°C 89% 0.2 mph WSW0.3 kmh WSW 1.1 mph1.8 kmh 30.07 in1018.3 mb 0.06 in1.5 mm 0.00 in0.0 mm 0.08 in2.0 mm
02:09 AM 46.6°F8.1°C 43.5°F6.4°C 89% 0.2 mph WSW0.3 kmh WSW 1.1 mph1.8 kmh 30.07 in1018.3 mb 0.06 in1.5 mm 0.00 in0.0 mm 0.08 in2.0 mm
02:11 AM 46.6°F8.1°C 43.5°F6.4°C 89% 0.7 mph WNW1.1 kmh WNW 2.7 mph4.3 kmh 30.08 in1018.6 mb 0.06 in1.5 mm 0.00 in0.0 mm 0.08 in2.0 mm
02:13 AM 46.4°F8.0°C 43.3°F6.3°C 89% 0.7 mph WNW1.1 kmh WNW 1.1 mph1.8 kmh 30.08 in1018.6 mb 0.04 in1.0 mm 0.00 in0.0 mm 0.08 in2.0 mm
02:15 AM 46.2°F7.9°C 43.2°F6.2°C 89% 0.7 mph WNW1.1 kmh WNW 1.6 mph2.6 kmh 30.08 in1018.6 mb 0.06 in1.5 mm 0.60 in15.2 mm 0.10 in2.5 mm
02:18 AM 46.2°F7.9°C 43.2°F6.2°C 89% 0.4 mph W0.6 kmh W -- 30.09 in1019.0 mb 0.06 in1.5 mm 0.00 in0.0 mm 0.10 in2.5 mm
02:20 AM 46.2°F7.9°C 43.2°F6.2°C 89% 0.4 mph W0.6 kmh W 2.2 mph3.5 kmh 30.08 in1018.6 mb 0.06 in1.5 mm 0.00 in0.0 mm 0.10 in2.5 mm
02:22 AM 46.2°F7.9°C 43.2°F6.2°C 89% 0.4 mph SE0.6 kmh SE 2.0 mph3.2 kmh 30.08 in1018.6 mb 0.06 in1.5 mm 0.00 in0.0 mm 0.10 in2.5 mm
02:24 AM 46.2°F7.9°C 43.2°F6.2°C 89% 0.2 mph ENE0.3 kmh ENE 0.9 mph1.4 kmh 30.08 in1018.6 mb 0.06 in1.5 mm 0.00 in0.0 mm 0.10 in2.5 mm
02:27 AM 46.2°F7.9°C 43.2°F6.2°C 89% 0.2 mph W0.3 kmh W -- 30.08 in1018.6 mb 0.06 in1.5 mm 0.00 in0.0 mm 0.10 in2.5 mm
02:29 AM 46.2°F7.9°C 43.2°F6.2°C 89% 0.4 mph W0.6 kmh W 1.8 mph2.9 kmh 30.08 in1018.6 mb 0.06 in1.5 mm 0.00 in0.0 mm 0.12 in3.0 mm
02:31 AM 46.2°F7.9°C 43.2°F6.2°C 89% 0.2 mph NW0.3 kmh NW 1.1 mph1.8 kmh 30.08 in1018.6 mb 0.06 in1.5 mm 0.00 in0.0 mm 0.12 in3.0 mm
02:33 AM 46.2°F7.9°C 43.2°F6.2°C 89% 0.2 mph NW0.3 kmh NW 1.3 mph2.1 kmh 30.08 in1018.6 mb 0.06 in1.5 mm 0.00 in0.0 mm 0.12 in3.0 mm
02:35 AM 46.2°F7.9°C 43.5°F6.4°C 90% 0.7 mph W1.1 kmh W 1.8 mph2.9 kmh 30.08 in1018.6 mb 0.06 in1.5 mm 0.00 in0.0 mm 0.12 in3.0 mm
02:38 AM 46.2°F7.9°C 43.5°F6.4°C 90% 0.4 mph W0.6 kmh W -- 30.08 in1018.6 mb 0.06 in1.5 mm 0.00 in0.0 mm 0.12 in3.0 mm
02:40 AM 46.2°F7.9°C 43.5°F6.4°C 90% 0.4 mph S0.6 kmh S 1.3 mph2.1 kmh 30.08 in1018.6 mb 0.06 in1.5 mm 0.00 in0.0 mm 0.12 in3.0 mm
02:42 AM 46.2°F7.9°C 43.5°F6.4°C 90% 0.2 mph E0.3 kmh E -- 30.08 in1018.6 mb 0.08 in2.0 mm 0.60 in15.2 mm 0.14 in3.6 mm
02:44 AM 46.2°F7.9°C 43.5°F6.4°C 90% 0.2 mph W0.3 kmh W 0.9 mph1.4 kmh 30.08 in1018.6 mb 0.08 in2.0 mm 0.00 in0.0 mm 0.14 in3.6 mm
02:47 AM 46.2°F7.9°C 43.5°F6.4°C 90% 0.2 mph W0.3 kmh W 0.9 mph1.4 kmh 30.08 in1018.6 mb 0.08 in2.0 mm 0.00 in0.0 mm 0.14 in3.6 mm
02:49 AM 46.2°F7.9°C 43.5°F6.4°C 90% 0.2 mph WNW0.3 kmh WNW -- 30.08 in1018.6 mb 0.08 in2.0 mm 0.00 in0.0 mm 0.14 in3.6 mm
02:51 AM 46.2°F7.9°C 43.5°F6.4°C 90% 0.2 mph WSW0.3 kmh WSW -- 30.08 in1018.6 mb 0.08 in2.0 mm 0.00 in0.0 mm 0.14 in3.6 mm
02:53 AM 46.2°F7.9°C 43.5°F6.4°C 90% 0.2 mph W0.3 kmh W -- 30.08 in1018.6 mb 0.06 in1.5 mm 0.00 in0.0 mm 0.14 in3.6 mm
02:55 AM 46.2°F7.9°C 43.5°F6.4°C 90% 0.2 mph NNE0.3 kmh NNE -- 30.08 in1018.6 mb 0.06 in1.5 mm 0.00 in0.0 mm 0.14 in3.6 mm
02:57 AM 46.2°F7.9°C 43.2°F6.2°C 89% 0.2 mph W0.3 kmh W -- 30.08 in1018.6 mb 0.06 in1.5 mm 0.00 in0.0 mm 0.14 in3.6 mm
02:59 AM 46.0°F7.8°C 43.0°F6.1°C 89% 0.2 mph W0.3 kmh W 1.1 mph1.8 kmh 30.08 in1018.6 mb 0.06 in1.5 mm 0.00 in0.0 mm 0.14 in3.6 mm
03:01 AM 46.0°F7.8°C 43.0°F6.1°C 89% 0.2 mph WNW0.3 kmh WNW 1.1 mph1.8 kmh 30.08 in1018.6 mb 0.06 in1.5 mm 0.00 in0.0 mm 0.14 in3.6 mm
03:04 AM 46.0°F7.8°C 43.0°F6.1°C 89% 0.2 mph W0.3 kmh W -- 30.08 in1018.6 mb 0.06 in1.5 mm 0.00 in0.0 mm 0.14 in3.6 mm
03:06 AM 46.0°F7.8°C 43.3°F6.3°C 90% 0.2 mph 0.3 kmh 0.9 mph1.4 kmh 30.08 in1018.6 mb 0.06 in1.5 mm 0.00 in0.0 mm 0.14 in3.6 mm
03:08 AM 46.0°F7.8°C 43.3°F6.3°C 90% 0.2 mph W0.3 kmh W -- 30.08 in1018.6 mb 0.06 in1.5 mm 0.00 in0.0 mm 0.14 in3.6 mm
03:10 AM 46.0°F7.8°C 43.3°F6.3°C 90% 0.4 mph WSW0.6 kmh WSW 1.8 mph2.9 kmh 30.08 in1018.6 mb 0.06 in1.5 mm 0.00 in0.0 mm 0.14 in3.6 mm
03:12 AM 46.0°F7.8°C 43.3°F6.3°C 90% 0.4 mph W0.6 kmh W 1.3 mph2.1 kmh 30.08 in1018.6 mb 0.06 in1.5 mm 0.00 in0.0 mm 0.14 in3.6 mm
03:15 AM 46.2°F7.9°C 43.5°F6.4°C 90% 0.4 mph SW0.6 kmh SW 1.6 mph2.6 kmh 30.08 in1018.6 mb 0.06 in1.5 mm 0.00 in0.0 mm 0.16 in4.1 mm
03:17 AM 46.2°F7.9°C 43.5°F6.4°C 90% 0.2 mph WNW0.3 kmh WNW -- 30.08 in1018.6 mb 0.06 in1.5 mm 0.00 in0.0 mm 0.16 in4.1 mm
03:19 AM 46.0°F7.8°C 43.3°F6.3°C 90% 0.2 mph ESE0.3 kmh ESE 0.9 mph1.4 kmh 30.08 in1018.6 mb 0.06 in1.5 mm 0.00 in0.0 mm 0.16 in4.1 mm
03:21 AM 46.0°F7.8°C 43.3°F6.3°C 90% 0.2 mph WNW0.3 kmh WNW 0.9 mph1.4 kmh 30.08 in1018.6 mb 0.06 in1.5 mm 0.00 in0.0 mm 0.16 in4.1 mm
03:23 AM 46.0°F7.8°C 43.3°F6.3°C 90% 0.2 mph NNW0.3 kmh NNW -- 30.08 in1018.6 mb 0.06 in1.5 mm 0.00 in0.0 mm 0.16 in4.1 mm
03:26 AM 46.0°F7.8°C 43.3°F6.3°C 90% 1.1 mph WNW1.8 kmh WNW 2.5 mph4.0 kmh 30.08 in1018.6 mb 0.06 in1.5 mm 0.00 in0.0 mm 0.16 in4.1 mm
03:28 AM 46.0°F7.8°C 43.3°F6.3°C 90% 1.3 mph W2.1 kmh W 5.1 mph8.2 kmh 30.08 in1018.6 mb 0.06 in1.5 mm 0.00 in0.0 mm 0.16 in4.1 mm
03:30 AM 46.0°F7.8°C 43.3°F6.3°C 90% 0.9 mph WNW1.4 kmh WNW 2.0 mph3.2 kmh 30.08 in1018.6 mb 0.04 in1.0 mm 0.00 in0.0 mm 0.16 in4.1 mm
03:32 AM 46.2°F7.9°C 43.5°F6.4°C 90% 0.9 mph WNW1.4 kmh WNW 1.8 mph2.9 kmh 30.08 in1018.6 mb 0.04 in1.0 mm 0.00 in0.0 mm 0.16 in4.1 mm
03:34 AM 46.2°F7.9°C 43.5°F6.4°C 90% 0.7 mph NW1.1 kmh NW 2.2 mph3.5 kmh 30.08 in1018.6 mb 0.04 in1.0 mm 0.00 in0.0 mm 0.16 in4.1 mm
03:37 AM 46.2°F7.9°C 43.5°F6.4°C 90% 0.4 mph NNW0.6 kmh NNW -- 30.08 in1018.6 mb 0.04 in1.0 mm 0.00 in0.0 mm 0.16 in4.1 mm
03:39 AM 46.2°F7.9°C 43.5°F6.4°C 90% 0.2 mph W0.3 kmh W 1.1 mph1.8 kmh 30.08 in1018.6 mb 0.04 in1.0 mm 0.00 in0.0 mm 0.16 in4.1 mm
03:41 AM 46.2°F7.9°C 43.5°F6.4°C 90% 0.2 mph W0.3 kmh W -- 30.08 in1018.6 mb 0.02 in0.5 mm 0.00 in0.0 mm 0.16 in4.1 mm
03:43 AM 46.2°F7.9°C 43.5°F6.4°C 90% 0.2 mph SE0.3 kmh SE -- 30.08 in1018.6 mb 0.02 in0.5 mm 0.00 in0.0 mm 0.16 in4.1 mm
03:46 AM 46.2°F7.9°C 43.5°F6.4°C 90% 0.2 mph SSE0.3 kmh SSE -- 30.07 in1018.3 mb 0.02 in0.5 mm 0.00 in0.0 mm 0.16 in4.1 mm
03:48 AM 46.2°F7.9°C 43.5°F6.4°C 90% 0.2 mph NNE0.3 kmh NNE -- 30.08 in1018.6 mb 0.02 in0.5 mm 0.00 in0.0 mm 0.16 in4.1 mm
03:50 AM 46.2°F7.9°C 43.5°F6.4°C 90% 0.7 mph WNW1.1 kmh WNW 2.5 mph4.0 kmh 30.08 in1018.6 mb 0.02 in0.5 mm 0.00 in0.0 mm 0.16 in4.1 mm
03:52 AM 46.2°F7.9°C 43.5°F6.4°C 90% 0.4 mph W0.6 kmh W 1.6 mph2.6 kmh 30.08 in1018.6 mb 0.02 in0.5 mm 0.00 in0.0 mm 0.16 in4.1 mm
03:55 AM 46.2°F7.9°C 43.5°F6.4°C 90% 0.2 mph WNW0.3 kmh WNW -- 30.08 in1018.6 mb 0.02 in0.5 mm 0.00 in0.0 mm 0.16 in4.1 mm
03:57 AM 46.2°F7.9°C 43.5°F6.4°C 90% 0.7 mph NW1.1 kmh NW 2.0 mph3.2 kmh 30.08 in1018.6 mb 0.02 in0.5 mm 0.00 in0.0 mm 0.16 in4.1 mm
03:59 AM 46.2°F7.9°C 43.5°F6.4°C 90% 0.7 mph W1.1 kmh W 1.3 mph2.1 kmh 30.09 in1019.0 mb 0.02 in0.5 mm 0.00 in0.0 mm 0.16 in4.1 mm
04:01 AM 46.2°F7.9°C 43.5°F6.4°C 90% 0.9 mph NW1.4 kmh NW 3.6 mph5.8 kmh 30.08 in1018.6 mb 0.02 in0.5 mm 0.00 in0.0 mm 0.16 in4.1 mm
04:04 AM 46.2°F7.9°C 43.5°F6.4°C 90% 0.4 mph W0.6 kmh W -- 30.08 in1018.6 mb 0.02 in0.5 mm 0.00 in0.0 mm 0.16 in4.1 mm
04:06 AM 46.2°F7.9°C 43.5°F6.4°C 90% 0.9 mph W1.4 kmh W 1.6 mph2.6 kmh 30.08 in1018.6 mb 0.02 in0.5 mm 0.00 in0.0 mm 0.16 in4.1 mm
04:08 AM 46.2°F7.9°C 43.5°F6.4°C 90% 0.7 mph W1.1 kmh W 1.6 mph2.6 kmh 30.08 in1018.6 mb 0.02 in0.5 mm 0.00 in0.0 mm 0.16 in4.1 mm
04:10 AM 46.2°F7.9°C 43.5°F6.4°C 90% 0.7 mph ESE1.1 kmh ESE 1.1 mph1.8 kmh 30.08 in1018.6 mb 0.02 in0.5 mm 0.00 in0.0 mm 0.16 in4.1 mm
04:13 AM 46.2°F7.9°C 43.5°F6.4°C 90% 0.4 mph WNW0.6 kmh WNW -- 30.08 in1018.6 mb 0.02 in0.5 mm 0.00 in0.0 mm 0.16 in4.1 mm
04:15 AM 46.2°F7.9°C 43.5°F6.4°C 90% 0.4 mph W0.6 kmh W 1.3 mph2.1 kmh 30.08 in1018.6 mb 0.02 in0.5 mm 0.00 in0.0 mm 0.16 in4.1 mm
04:17 AM 46.0°F7.8°C 43.3°F6.3°C 90% 0.4 mph W0.6 kmh W 1.3 mph2.1 kmh 30.08 in1018.6 mb 0.00 in0.0 mm 0.00 in0.0 mm 0.16 in4.1 mm
04:19 AM 46.0°F7.8°C 43.3°F6.3°C 90% 0.7 mph NNW1.1 kmh NNW 1.6 mph2.6 kmh 30.09 in1019.0 mb 0.00 in0.0 mm 0.00 in0.0 mm 0.16 in4.1 mm
04:21 AM 46.0°F7.8°C 43.3°F6.3°C 90% 0.4 mph WSW0.6 kmh WSW -- 30.09 in1019.0 mb 0.00 in0.0 mm 0.00 in0.0 mm 0.16 in4.1 mm
04:24 AM 46.0°F7.8°C 43.3°F6.3°C 90% 0.7 mph W1.1 kmh W 2.5 mph4.0 kmh 30.09 in1019.0 mb 0.00 in0.0 mm 0.00 in0.0 mm 0.16 in4.1 mm
04:26 AM 46.0°F7.8°C 43.3°F6.3°C 90% 0.7 mph NW1.1 kmh NW 1.6 mph2.6 kmh 30.09 in1019.0 mb 0.00 in0.0 mm 0.00 in0.0 mm 0.16 in4.1 mm
04:28 AM 46.0°F7.8°C 43.3°F6.3°C 90% 0.4 mph NW0.6 kmh NW 0.9 mph1.4 kmh 30.09 in1019.0 mb 0.00 in0.0 mm 0.00 in0.0 mm 0.16 in4.1 mm
04:30 AM 46.0°F7.8°C 43.3°F6.3°C 90% 0.4 mph W0.6 kmh W 1.1 mph1.8 kmh 30.09 in1019.0 mb 0.00 in0.0 mm 0.00 in0.0 mm 0.16 in4.1 mm
04:32 AM 46.2°F7.9°C 43.5°F6.4°C 90% 0.4 mph W0.6 kmh W 1.3 mph2.1 kmh 30.09 in1019.0 mb 0.00 in0.0 mm 0.00 in0.0 mm 0.16 in4.1 mm
04:35 AM 46.0°F7.8°C 43.3°F6.3°C 90% 1.1 mph W1.8 kmh W 2.2 mph3.5 kmh 30.09 in1019.0 mb 0.00 in0.0 mm 0.00 in0.0 mm 0.16 in4.1 mm
04:37 AM 46.0°F7.8°C 43.3°F6.3°C 90% 1.6 mph W2.6 kmh W 2.9 mph4.7 kmh 30.09 in1019.0 mb 0.00 in0.0 mm 0.00 in0.0 mm 0.16 in4.1 mm
04:39 AM 46.2°F7.9°C 43.5°F6.4°C 90% 1.1 mph WSW1.8 kmh WSW 2.2 mph3.5 kmh 30.09 in1019.0 mb 0.00 in0.0 mm 0.00 in0.0 mm 0.16 in4.1 mm
04:41 AM 46.2°F7.9°C 43.5°F6.4°C 90% 0.9 mph W1.4 kmh W 1.1 mph1.8 kmh 30.09 in1019.0 mb 0.00 in0.0 mm 0.00 in0.0 mm 0.16 in4.1 mm
04:43 AM 46.2°F7.9°C 43.5°F6.4°C 90% 0.9 mph WNW1.4 kmh WNW 1.3 mph2.1 kmh 30.09 in1019.0 mb 0.00 in0.0 mm 0.00 in0.0 mm 0.16 in4.1 mm
04:46 AM 46.2°F7.9°C 43.5°F6.4°C 90% 1.1 mph WNW1.8 kmh WNW 2.2 mph3.5 kmh 30.09 in1019.0 mb 0.00 in0.0 mm 0.00 in0.0 mm 0.16 in4.1 mm
04:48 AM 46.2°F7.9°C 43.5°F6.4°C 90% 0.9 mph W1.4 kmh W 1.6 mph2.6 kmh 30.09 in1019.0 mb 0.00 in0.0 mm 0.00 in0.0 mm 0.16 in4.1 mm
04:50 AM 46.2°F7.9°C 43.5°F6.4°C 90% 1.1 mph WSW1.8 kmh WSW 2.5 mph4.0 kmh 30.09 in1019.0 mb 0.00 in0.0 mm 0.00 in0.0 mm 0.16 in4.1 mm
04:52 AM 46.2°F7.9°C 43.5°F6.4°C 90% 0.7 mph SSW1.1 kmh SSW -- 30.09 in1019.0 mb 0.00 in0.0 mm 0.00 in0.0 mm 0.16 in4.1 mm
04:55 AM 46.2°F7.9°C 43.5°F6.4°C 90% 0.4 mph SE0.6 kmh SE -- 30.08 in1018.6 mb 0.00 in0.0 mm 0.00 in0.0 mm 0.16 in4.1 mm
04:57 AM 46.2°F7.9°C 43.5°F6.4°C 90% 0.4 mph W0.6 kmh W 1.1 mph1.8 kmh 30.08 in1018.6 mb 0.00 in0.0 mm 0.00 in0.0 mm 0.16 in4.1 mm
04:59 AM 46.2°F7.9°C 43.5°F6.4°C 90% 0.4 mph W0.6 kmh W 1.3 mph2.1 kmh 30.09 in1019.0 mb 0.00 in0.0 mm 0.00 in0.0 mm 0.16 in4.1 mm
05:01 AM 46.2°F7.9°C 43.5°F6.4°C 90% 0.7 mph WSW1.1 kmh WSW 3.1 mph5.0 kmh 30.08 in1018.6 mb 0.00 in0.0 mm 0.00 in0.0 mm 0.16 in4.1 mm
05:03 AM 46.2°F7.9°C 43.5°F6.4°C 90% 0.4 mph WSW0.6 kmh WSW -- 30.09 in1019.0 mb 0.00 in0.0 mm 0.00 in0.0 mm 0.16 in4.1 mm
05:06 AM 46.2°F7.9°C 43.5°F6.4°C 90% 0.4 mph S0.6 kmh S 1.6 mph2.6 kmh 30.09 in1019.0 mb 0.00 in0.0 mm 0.00 in0.0 mm 0.16 in4.1 mm
05:08 AM 46.2°F7.9°C 43.5°F6.4°C 90% 0.9 mph W1.4 kmh W 2.7 mph4.3 kmh 30.08 in1018.6 mb 0.00 in0.0 mm 0.00 in0.0 mm 0.16 in4.1 mm
05:10 AM 46.2°F7.9°C 43.5°F6.4°C 90% 1.6 mph W2.6 kmh W 2.9 mph4.7 kmh 30.09 in1019.0 mb 0.00 in0.0 mm 0.00 in0.0 mm 0.16 in4.1 mm
05:12 AM 46.2°F7.9°C 43.5°F6.4°C 90% 0.9 mph W1.4 kmh W 1.1 mph1.8 kmh 30.08 in1018.6 mb 0.00 in0.0 mm 0.00 in0.0 mm 0.16 in4.1 mm
05:15 AM 46.2°F7.9°C 43.5°F6.4°C 90% 0.7 mph NNW1.1 kmh NNW 0.9 mph1.4 kmh 30.09 in1019.0 mb 0.00 in0.0 mm 0.00 in0.0 mm 0.16 in4.1 mm
05:17 AM 46.2°F7.9°C 43.5°F6.4°C 90% 0.4 mph WNW0.6 kmh WNW 1.1 mph1.8 kmh 30.09 in1019.0 mb 0.00 in0.0 mm 0.00 in0.0 mm 0.16 in4.1 mm
05:19 AM 46.2°F7.9°C 43.5°F6.4°C 90% 0.9 mph W1.4 kmh W 2.5 mph4.0 kmh 30.09 in1019.0 mb 0.00 in0.0 mm 0.00 in0.0 mm 0.16 in4.1 mm
05:21 AM 46.2°F7.9°C 43.5°F6.4°C 90% 0.4 mph W0.6 kmh W 0.9 mph1.4 kmh 30.09 in1019.0 mb 0.00 in0.0 mm 0.00 in0.0 mm 0.16 in4.1 mm
05:24 AM 46.2°F7.9°C 43.5°F6.4°C 90% 1.1 mph WSW1.8 kmh WSW 3.4 mph5.5 kmh 30.09 in1019.0 mb 0.00 in0.0 mm 0.00 in0.0 mm 0.16 in4.1 mm
05:26 AM 46.2°F7.9°C 43.5°F6.4°C 90% 1.1 mph WSW1.8 kmh WSW 2.2 mph3.5 kmh 30.09 in1019.0 mb 0.00 in0.0 mm 0.00 in0.0 mm 0.16 in4.1 mm
05:28 AM 46.2°F7.9°C 43.5°F6.4°C 90% 1.6 mph NNW2.6 kmh NNW 2.9 mph4.7 kmh 30.09 in1019.0 mb 0.00 in0.0 mm 0.00 in0.0 mm 0.16 in4.1 mm
05:30 AM 46.2°F7.9°C 43.5°F6.4°C 90% 2.0 mph W3.2 kmh W 3.4 mph5.5 kmh 30.09 in1019.0 mb 0.00 in0.0 mm 0.00 in0.0 mm 0.16 in4.1 mm
05:33 AM 46.2°F7.9°C 43.5°F6.4°C 90% 1.1 mph 1.8 kmh -- 30.09 in1019.0 mb 0.00 in0.0 mm 0.00 in0.0 mm 0.16 in4.1 mm
05:35 AM 46.2°F7.9°C 43.5°F6.4°C 90% 0.9 mph SW1.4 kmh SW 2.0 mph3.2 kmh 30.09 in1019.0 mb 0.00 in0.0 mm 0.00 in0.0 mm 0.16 in4.1 mm
05:37 AM 46.2°F7.9°C 43.5°F6.4°C 90% 1.1 mph NNW1.8 kmh NNW 3.6 mph5.8 kmh 30.10 in1019.3 mb 0.00 in0.0 mm 0.00 in0.0 mm 0.16 in4.1 mm
05:39 AM 46.2°F7.9°C 43.5°F6.4°C 90% 0.9 mph W1.4 kmh W 0.9 mph1.4 kmh 30.09 in1019.0 mb 0.00 in0.0 mm 0.00 in0.0 mm 0.16 in4.1 mm
05:41 AM 46.2°F7.9°C 43.5°F6.4°C 90% 1.1 mph NNW1.8 kmh NNW 3.4 mph5.5 kmh 30.10 in1019.3 mb 0.00 in0.0 mm 0.00 in0.0 mm 0.16 in4.1 mm
05:44 AM 46.2°F7.9°C 43.5°F6.4°C 90% 1.1 mph W1.8 kmh W 2.0 mph3.2 kmh 30.10 in1019.3 mb 0.00 in0.0 mm 0.00 in0.0 mm 0.16 in4.1 mm
05:46 AM 46.2°F7.9°C 43.5°F6.4°C 90% 1.8 mph WNW2.9 kmh WNW 3.8 mph6.1 kmh 30.10 in1019.3 mb 0.00 in0.0 mm 0.00 in0.0 mm 0.16 in4.1 mm
05:48 AM 46.2°F7.9°C 43.5°F6.4°C 90% 1.8 mph NNE2.9 kmh NNE 2.9 mph4.7 kmh 30.10 in1019.3 mb 0.00 in0.0 mm 0.00 in0.0 mm 0.16 in4.1 mm
05:50 AM 46.2°F7.9°C 43.5°F6.4°C 90% 2.0 mph WNW3.2 kmh WNW 4.5 mph7.2 kmh 30.10 in1019.3 mb 0.00 in0.0 mm 0.00 in0.0 mm 0.16 in4.1 mm
05:52 AM 46.2°F7.9°C 43.5°F6.4°C 90% 2.2 mph NNW3.5 kmh NNW 3.6 mph5.8 kmh 30.10 in1019.3 mb 0.00 in0.0 mm 0.00 in0.0 mm 0.16 in4.1 mm
05:55 AM 46.2°F7.9°C 43.5°F6.4°C 90% 3.1 mph NW5.0 kmh NW 7.6 mph12.2 kmh 30.10 in1019.3 mb 0.00 in0.0 mm 0.00 in0.0 mm 0.16 in4.1 mm
05:57 AM 46.2°F7.9°C 43.5°F6.4°C 90% 3.1 mph WNW5.0 kmh WNW 4.5 mph7.2 kmh 30.10 in1019.3 mb 0.00 in0.0 mm 0.00 in0.0 mm 0.16 in4.1 mm
05:59 AM 46.2°F7.9°C 43.5°F6.4°C 90% 2.0 mph W3.2 kmh W 2.2 mph3.5 kmh 30.10 in1019.3 mb 0.00 in0.0 mm 0.00 in0.0 mm 0.16 in4.1 mm
06:01 AM 46.2°F7.9°C 43.5°F6.4°C 90% 2.2 mph WSW3.5 kmh WSW 4.3 mph6.9 kmh 30.10 in1019.3 mb 0.00 in0.0 mm 0.00 in0.0 mm 0.16 in4.1 mm
06:03 AM 46.2°F7.9°C 43.5°F6.4°C 90% 2.9 mph WSW4.7 kmh WSW 7.4 mph11.9 kmh 30.11 in1019.6 mb 0.00 in0.0 mm 0.00 in0.0 mm 0.16 in4.1 mm
06:06 AM 46.2°F7.9°C 43.7°F6.5°C 91% 3.4 mph WSW5.5 kmh WSW 5.1 mph8.2 kmh 30.10 in1019.3 mb 0.00 in0.0 mm 0.00 in0.0 mm 0.16 in4.1 mm
06:08 AM 46.2°F7.9°C 43.7°F6.5°C 91% 2.5 mph NW4.0 kmh NW 4.0 mph6.4 kmh 30.11 in1019.6 mb 0.00 in0.0 mm 0.00 in0.0 mm 0.16 in4.1 mm
06:10 AM 46.2°F7.9°C 43.7°F6.5°C 91% 1.8 mph NNW2.9 kmh NNW 2.2 mph3.5 kmh 30.11 in1019.6 mb 0.00 in0.0 mm 0.00 in0.0 mm 0.16 in4.1 mm
06:12 AM 46.2°F7.9°C 43.7°F6.5°C 91% 1.6 mph WNW2.6 kmh WNW 3.4 mph5.5 kmh 30.11 in1019.6 mb 0.00 in0.0 mm 0.00 in0.0 mm 0.16 in4.1 mm
06:14 AM 46.2°F7.9°C 43.7°F6.5°C 91% 1.1 mph W1.8 kmh W 1.6 mph2.6 kmh 30.11 in1019.6 mb 0.00 in0.0 mm 0.00 in0.0 mm 0.16 in4.1 mm
06:17 AM 46.2°F7.9°C 43.7°F6.5°C 91% 1.3 mph NNW2.1 kmh NNW 3.1 mph5.0 kmh 30.11 in1019.6 mb 0.00 in0.0 mm 0.00 in0.0 mm 0.16 in4.1 mm
06:19 AM 46.2°F7.9°C 43.7°F6.5°C 91% 1.3 mph W2.1 kmh W 2.2 mph3.5 kmh 30.11 in1019.6 mb 0.00 in0.0 mm 0.00 in0.0 mm 0.16 in4.1 mm
06:21 AM 46.2°F7.9°C 43.7°F6.5°C 91% 1.8 mph W2.9 kmh W 3.1 mph5.0 kmh 30.10 in1019.3 mb 0.00 in0.0 mm 0.00 in0.0 mm 0.16 in4.1 mm
06:23 AM 46.2°F7.9°C 43.7°F6.5°C 91% 2.2 mph NW3.5 kmh NW 4.5 mph7.2 kmh 30.10 in1019.3 mb 0.00 in0.0 mm 0.00 in0.0 mm 0.16 in4.1 mm
06:25 AM 46.2°F7.9°C 43.7°F6.5°C 91% 2.2 mph WNW3.5 kmh WNW 3.8 mph6.1 kmh 30.10 in1019.3 mb 0.00 in0.0 mm 0.00 in0.0 mm 0.16 in4.1 mm
06:27 AM 46.0°F7.8°C 43.5°F6.4°C 91% 2.7 mph W4.3 kmh W 5.1 mph8.2 kmh 30.11 in1019.6 mb 0.00 in0.0 mm 0.00 in0.0 mm 0.16 in4.1 mm
06:30 AM 46.0°F7.8°C 43.5°F6.4°C 91% 2.5 mph W4.0 kmh W 3.8 mph6.1 kmh 30.11 in1019.6 mb 0.00 in0.0 mm 0.00 in0.0 mm 0.16 in4.1 mm
06:32 AM 46.0°F7.8°C 43.5°F6.4°C 91% 1.8 mph W2.9 kmh W 3.6 mph5.8 kmh 30.11 in1019.6 mb 0.00 in0.0 mm 0.00 in0.0 mm 0.16 in4.1 mm
06:34 AM 46.0°F7.8°C 43.5°F6.4°C 91% 1.6 mph NW2.6 kmh NW 3.8 mph6.1 kmh 30.11 in1019.6 mb 0.00 in0.0 mm 0.00 in0.0 mm 0.16 in4.1 mm
06:36 AM 46.0°F7.8°C 43.5°F6.4°C 91% 1.1 mph SW1.8 kmh SW 2.0 mph3.2 kmh 30.10 in1019.3 mb 0.00 in0.0 mm 0.00 in0.0 mm 0.16 in4.1 mm
06:39 AM 46.0°F7.8°C 43.5°F6.4°C 91% 1.8 mph W2.9 kmh W 2.7 mph4.3 kmh 30.11 in1019.6 mb 0.00 in0.0 mm 0.00 in0.0 mm 0.16 in4.1 mm
06:41 AM 46.0°F7.8°C 43.5°F6.4°C 91% 1.8 mph WNW2.9 kmh WNW 4.0 mph6.4 kmh 30.11 in1019.6 mb 0.00 in0.0 mm 0.00 in0.0 mm 0.16 in4.1 mm
06:43 AM 46.0°F7.8°C 43.5°F6.4°C 91% 2.5 mph WSW4.0 kmh WSW 4.0 mph6.4 kmh 30.11 in1019.6 mb 0.00 in0.0 mm 0.00 in0.0 mm 0.16 in4.1 mm
06:45 AM 46.0°F7.8°C 43.5°F6.4°C 91% 3.1 mph 5.0 kmh 6.3 mph10.1 kmh 30.11 in1019.6 mb 0.00 in0.0 mm 0.00 in0.0 mm 0.16 in4.1 mm
06:48 AM 46.0°F7.8°C 43.5°F6.4°C 91% 2.9 mph NW4.7 kmh NW 4.0 mph6.4 kmh 30.11 in1019.6 mb 0.00 in0.0 mm 0.00 in0.0 mm 0.16 in4.1 mm
06:50 AM 46.0°F7.8°C 43.5°F6.4°C 91% 2.9 mph W4.7 kmh W 4.0 mph6.4 kmh 30.11 in1019.6 mb 0.00 in0.0 mm 0.00 in0.0 mm 0.16 in4.1 mm
06:52 AM 46.0°F7.8°C 43.5°F6.4°C 91% 2.5 mph W4.0 kmh W 4.0 mph6.4 kmh 30.12 in1020.0 mb 0.00 in0.0 mm 0.00 in0.0 mm 0.16 in4.1 mm
06:54 AM 46.0°F7.8°C 43.5°F6.4°C 91% 2.5 mph SW4.0 kmh SW 4.3 mph6.9 kmh 30.12 in1020.0 mb 0.00 in0.0 mm 0.00 in0.0 mm 0.16 in4.1 mm
06:56 AM 45.9°F7.7°C 43.3°F6.3°C 91% 3.6 mph NNW5.8 kmh NNW 6.3 mph10.1 kmh 30.12 in1020.0 mb 0.00 in0.0 mm 0.00 in0.0 mm 0.16 in4.1 mm
06:58 AM 45.9°F7.7°C 43.3°F6.3°C 91% 3.6 mph W5.8 kmh W 7.2 mph11.6 kmh 30.12 in1020.0 mb 0.00 in0.0 mm 0.00 in0.0 mm 0.16 in4.1 mm
07:01 AM 45.7°F7.6°C 43.2°F6.2°C 91% 3.1 mph NW5.0 kmh NW 4.5 mph7.2 kmh 30.12 in1020.0 mb 0.00 in0.0 mm 0.00 in0.0 mm 0.16 in4.1 mm
07:03 AM 45.7°F7.6°C 43.2°F6.2°C 91% 2.5 mph WNW4.0 kmh WNW 3.1 mph5.0 kmh 30.12 in1020.0 mb 0.00 in0.0 mm 0.00 in0.0 mm 0.16 in4.1 mm
07:05 AM 45.7°F7.6°C 43.2°F6.2°C 91% 2.5 mph WNW4.0 kmh WNW 4.0 mph6.4 kmh 30.12 in1020.0 mb 0.00 in0.0 mm 0.00 in0.0 mm 0.16 in4.1 mm
07:07 AM 45.7°F7.6°C 43.2°F6.2°C 91% 2.2 mph WSW3.5 kmh WSW 2.9 mph4.7 kmh 30.12 in1020.0 mb 0.00 in0.0 mm 0.00 in0.0 mm 0.16 in4.1 mm
07:09 AM 45.9°F7.7°C 43.3°F6.3°C 91% 1.3 mph WNW2.1 kmh WNW 2.5 mph4.0 kmh 30.12 in1020.0 mb 0.00 in0.0 mm 0.00 in0.0 mm 0.16 in4.1 mm
07:11 AM 45.9°F7.7°C 43.3°F6.3°C 91% 1.8 mph NW2.9 kmh NW 4.9 mph7.9 kmh 30.12 in1020.0 mb 0.00 in0.0 mm 0.00 in0.0 mm 0.16 in4.1 mm
07:14 AM 45.9°F7.7°C 43.3°F6.3°C 91% 2.2 mph NNW3.5 kmh NNW 4.5 mph7.2 kmh 30.13 in1020.3 mb 0.00 in0.0 mm 0.00 in0.0 mm 0.16 in4.1 mm
07:16 AM 45.7°F7.6°C 43.2°F6.2°C 91% 2.9 mph WNW4.7 kmh WNW 6.3 mph10.1 kmh 30.13 in1020.3 mb 0.00 in0.0 mm 0.00 in0.0 mm 0.16 in4.1 mm
07:18 AM 45.7°F7.6°C 43.2°F6.2°C 91% 3.8 mph NW6.1 kmh NW 6.7 mph10.8 kmh 30.13 in1020.3 mb 0.00 in0.0 mm 0.00 in0.0 mm 0.16 in4.1 mm
07:20 AM 45.7°F7.6°C 43.2°F6.2°C 91% 3.8 mph NNW6.1 kmh NNW 8.5 mph13.7 kmh 30.13 in1020.3 mb 0.00 in0.0 mm 0.00 in0.0 mm 0.16 in4.1 mm
07:23 AM 45.7°F7.6°C 43.2°F6.2°C 91% 2.7 mph WNW4.3 kmh WNW 3.6 mph5.8 kmh 30.13 in1020.3 mb 0.00 in0.0 mm 0.00 in0.0 mm 0.16 in4.1 mm
07:25 AM 45.7°F7.6°C 43.2°F6.2°C 91% 3.1 mph WNW5.0 kmh WNW 9.2 mph14.8 kmh 30.13 in1020.3 mb 0.00 in0.0 mm 0.00 in0.0 mm 0.16 in4.1 mm
07:27 AM 45.7°F7.6°C 43.2°F6.2°C 91% 2.7 mph WSW4.3 kmh WSW 3.1 mph5.0 kmh 30.13 in1020.3 mb 0.00 in0.0 mm 0.00 in0.0 mm 0.16 in4.1 mm
07:29 AM 45.7°F7.6°C 43.2°F6.2°C 91% 1.8 mph W2.9 kmh W 2.9 mph4.7 kmh 30.13 in1020.3 mb 0.00 in0.0 mm 0.00 in0.0 mm 0.16 in4.1 mm
07:31 AM 45.7°F7.6°C 43.2°F6.2°C 91% 2.5 mph WNW4.0 kmh WNW 3.8 mph6.1 kmh 30.14 in1020.7 mb 0.00 in0.0 mm 0.00 in0.0 mm 0.16 in4.1 mm
07:34 AM 45.7°F7.6°C 43.2°F6.2°C 91% 1.8 mph WSW2.9 kmh WSW 3.1 mph5.0 kmh 30.14 in1020.7 mb 0.00 in0.0 mm 0.00 in0.0 mm 0.16 in4.1 mm
07:36 AM 45.7°F7.6°C 43.2°F6.2°C 91% 2.2 mph W3.5 kmh W 4.0 mph6.4 kmh 30.14 in1020.7 mb 0.00 in0.0 mm 0.00 in0.0 mm 0.16 in4.1 mm
07:38 AM 45.5°F7.5°C 43.0°F6.1°C 91% 2.9 mph WSW4.7 kmh WSW 5.6 mph9.0 kmh 30.14 in1020.7 mb 0.00 in0.0 mm 0.00 in0.0 mm 0.16 in4.1 mm
07:40 AM 45.5°F7.5°C 43.0°F6.1°C 91% 2.2 mph W3.5 kmh W 4.5 mph7.2 kmh 30.13 in1020.3 mb 0.00 in0.0 mm 0.00 in0.0 mm 0.16 in4.1 mm
07:42 AM 45.5°F7.5°C 43.0°F6.1°C 91% 2.2 mph W3.5 kmh W 3.8 mph6.1 kmh 30.13 in1020.3 mb 0.00 in0.0 mm 0.00 in0.0 mm 0.16 in4.1 mm
07:44 AM 45.3°F7.4°C 42.8°F6.0°C 91% 2.0 mph NW3.2 kmh NW 3.1 mph5.0 kmh 30.13 in1020.3 mb 0.00 in0.0 mm 0.00 in0.0 mm 0.16 in4.1 mm
07:46 AM 45.3°F7.4°C 42.8°F6.0°C 91% 2.7 mph W4.3 kmh W 3.8 mph6.1 kmh 30.13 in1020.3 mb 0.00 in0.0 mm 0.00 in0.0 mm 0.16 in4.1 mm
07:49 AM 45.3°F7.4°C 42.8°F6.0°C 91% 2.2 mph NNW3.5 kmh NNW 4.7 mph7.6 kmh 30.14 in1020.7 mb 0.00 in0.0 mm 0.00 in0.0 mm 0.20 in5.1 mm
07:51 AM 45.5°F7.5°C 43.0°F6.1°C 91% 2.7 mph 4.3 kmh 5.6 mph9.0 kmh 30.14 in1020.7 mb 0.00 in0.0 mm 0.00 in0.0 mm 0.20 in5.1 mm
07:53 AM 45.5°F7.5°C 43.0°F6.1°C 91% 2.7 mph NNW4.3 kmh NNW 4.0 mph6.4 kmh 30.14 in1020.7 mb 0.00 in0.0 mm 0.00 in0.0 mm 0.20 in5.1 mm
07:55 AM 45.3°F7.4°C 42.8°F6.0°C 91% 2.9 mph W4.7 kmh W 5.4 mph8.7 kmh 30.14 in1020.7 mb 0.00 in0.0 mm 0.00 in0.0 mm 0.20 in5.1 mm
07:57 AM 45.3°F7.4°C 42.8°F6.0°C 91% 2.9 mph WSW4.7 kmh WSW 6.3 mph10.1 kmh 30.14 in1020.7 mb 0.00 in0.0 mm 0.00 in0.0 mm 0.20 in5.1 mm
08:00 AM 45.3°F7.4°C 42.8°F6.0°C 91% 3.6 mph W5.8 kmh W 7.4 mph11.9 kmh 30.14 in1020.7 mb 0.00 in0.0 mm 0.00 in0.0 mm 0.20 in5.1 mm
08:02 AM 45.3°F7.4°C 42.8°F6.0°C 91% 3.8 mph WSW6.1 kmh WSW 5.8 mph9.3 kmh 30.14 in1020.7 mb 0.00 in0.0 mm 0.00 in0.0 mm 0.20 in5.1 mm
08:04 AM 45.3°F7.4°C 42.8°F6.0°C 91% 3.6 mph NW5.8 kmh NW 6.5 mph10.5 kmh 30.14 in1020.7 mb 0.00 in0.0 mm 0.00 in0.0 mm 0.20 in5.1 mm
08:06 AM 45.3°F7.4°C 42.8°F6.0°C 91% 3.8 mph NNW6.1 kmh NNW 7.6 mph12.2 kmh 30.15 in1021.0 mb 0.00 in0.0 mm 0.00 in0.0 mm 0.20 in5.1 mm
08:08 AM 45.3°F7.4°C 42.8°F6.0°C 91% 4.0 mph WNW6.4 kmh WNW 6.5 mph10.5 kmh 30.15 in1021.0 mb 0.00 in0.0 mm 0.00 in0.0 mm 0.20 in5.1 mm
08:10 AM 45.3°F7.4°C 42.8°F6.0°C 91% 4.5 mph WNW7.2 kmh WNW 6.0 mph9.7 kmh 30.15 in1021.0 mb 0.00 in0.0 mm 0.00 in0.0 mm 0.20 in5.1 mm
08:13 AM 45.3°F7.4°C 42.8°F6.0°C 91% 4.3 mph NW6.9 kmh NW 6.0 mph9.7 kmh 30.15 in1021.0 mb 0.00 in0.0 mm 0.00 in0.0 mm 0.20 in5.1 mm
08:15 AM 45.1°F7.3°C 42.6°F5.9°C 91% 3.4 mph WNW5.5 kmh WNW 4.9 mph7.9 kmh 30.15 in1021.0 mb 0.00 in0.0 mm 0.00 in0.0 mm 0.20 in5.1 mm
08:17 AM 45.1°F7.3°C 42.6°F5.9°C 91% 3.8 mph NNW6.1 kmh NNW 7.8 mph12.6 kmh 30.15 in1021.0 mb 0.00 in0.0 mm 0.00 in0.0 mm 0.20 in5.1 mm
08:19 AM 45.1°F7.3°C 42.6°F5.9°C 91% 3.6 mph NNE5.8 kmh NNE 7.2 mph11.6 kmh 30.16 in1021.3 mb 0.00 in0.0 mm 0.00 in0.0 mm 0.20 in5.1 mm
08:21 AM 45.1°F7.3°C 42.6°F5.9°C 91% 4.3 mph NW6.9 kmh NW 7.2 mph11.6 kmh 30.16 in1021.3 mb 0.00 in0.0 mm 0.00 in0.0 mm 0.20 in5.1 mm
08:23 AM 45.1°F7.3°C 42.6°F5.9°C 91% 4.0 mph NW6.4 kmh NW 5.8 mph9.3 kmh 30.16 in1021.3 mb 0.00 in0.0 mm 0.00 in0.0 mm 0.20 in5.1 mm
08:25 AM 45.1°F7.3°C 42.6°F5.9°C 91% 4.0 mph WNW6.4 kmh WNW 7.6 mph12.2 kmh 30.16 in1021.3 mb 0.00 in0.0 mm 0.00 in0.0 mm 0.20 in5.1 mm
08:27 AM 45.0°F7.2°C 42.4°F5.8°C 91% 3.8 mph WSW6.1 kmh WSW 8.3 mph13.4 kmh 30.16 in1021.3 mb 0.00 in0.0 mm 0.00 in0.0 mm 0.20 in5.1 mm
08:30 AM 45.0°F7.2°C 42.4°F5.8°C 91% 4.9 mph W7.9 kmh W 10.3 mph16.6 kmh 30.16 in1021.3 mb 0.00 in0.0 mm 0.00 in0.0 mm 0.20 in5.1 mm
08:32 AM 45.0°F7.2°C 42.4°F5.8°C 91% 3.8 mph W6.1 kmh W 3.6 mph5.8 kmh 30.16 in1021.3 mb 0.00 in0.0 mm 0.00 in0.0 mm 0.20 in5.1 mm
08:34 AM 45.0°F7.2°C 42.4°F5.8°C 91% 3.4 mph WNW5.5 kmh WNW 8.9 mph14.3 kmh 30.16 in1021.3 mb 0.00 in0.0 mm 0.00 in0.0 mm 0.20 in5.1 mm
08:37 AM 45.0°F7.2°C 42.4°F5.8°C 91% 2.9 mph WNW4.7 kmh WNW 3.8 mph6.1 kmh 30.16 in1021.3 mb 0.00 in0.0 mm 0.00 in0.0 mm 0.20 in5.1 mm
08:39 AM 45.1°F7.3°C 42.6°F5.9°C 91% 2.2 mph W3.5 kmh W 5.4 mph8.7 kmh 30.16 in1021.3 mb 0.00 in0.0 mm 0.00 in0.0 mm 0.20 in5.1 mm
08:41 AM 45.1°F7.3°C 42.6°F5.9°C 91% 2.9 mph NNW4.7 kmh NNW 4.7 mph7.6 kmh 30.17 in1021.7 mb 0.00 in0.0 mm 0.00 in0.0 mm 0.20 in5.1 mm
08:43 AM 45.1°F7.3°C 42.4°F5.8°C 90% 2.0 mph NW3.2 kmh NW 4.7 mph7.6 kmh 30.17 in1021.7 mb 0.00 in0.0 mm 0.00 in0.0 mm 0.20 in5.1 mm
08:45 AM 45.1°F7.3°C 42.4°F5.8°C 90% 2.2 mph WSW3.5 kmh WSW 3.1 mph5.0 kmh 30.17 in1021.7 mb 0.00 in0.0 mm 0.00 in0.0 mm 0.20 in5.1 mm
08:47 AM 45.1°F7.3°C 42.4°F5.8°C 90% 2.5 mph W4.0 kmh W 4.0 mph6.4 kmh 30.17 in1021.7 mb 0.00 in0.0 mm 0.00 in0.0 mm 0.20 in5.1 mm
08:49 AM 45.0°F7.2°C 42.3°F5.7°C 90% 3.1 mph W5.0 kmh W 7.8 mph12.6 kmh 30.17 in1021.7 mb 0.00 in0.0 mm 0.00 in0.0 mm 0.20 in5.1 mm
08:51 AM 45.0°F7.2°C 42.3°F5.7°C 90% 3.4 mph WNW5.5 kmh WNW 4.7 mph7.6 kmh 30.17 in1021.7 mb 0.00 in0.0 mm 0.00 in0.0 mm 0.20 in5.1 mm
08:54 AM 45.1°F7.3°C 42.4°F5.8°C 90% 2.5 mph NW4.0 kmh NW 3.4 mph5.5 kmh 30.17 in1021.7 mb 0.00 in0.0 mm 0.00 in0.0 mm 0.20 in5.1 mm
08:56 AM 45.1°F7.3°C 42.4°F5.8°C 90% 2.7 mph NW4.3 kmh NW 5.1 mph8.2 kmh 30.17 in1021.7 mb 0.00 in0.0 mm 0.00 in0.0 mm 0.20 in5.1 mm
08:58 AM 45.1°F7.3°C 42.4°F5.8°C 90% 2.2 mph W3.5 kmh W 3.8 mph6.1 kmh 30.17 in1021.7 mb 0.00 in0.0 mm 0.00 in0.0 mm 0.20 in5.1 mm
09:00 AM 45.0°F7.2°C 42.3°F5.7°C 90% 2.9 mph WNW4.7 kmh WNW 6.0 mph9.7 kmh 30.17 in1021.7 mb 0.00 in0.0 mm 0.00 in0.0 mm 0.20 in5.1 mm
09:03 AM 45.0°F7.2°C 42.3°F5.7°C 90% 2.7 mph W4.3 kmh W 4.9 mph7.9 kmh 30.17 in1021.7 mb 0.00 in0.0 mm 0.00 in0.0 mm 0.20 in5.1 mm
09:05 AM 45.0°F7.2°C 42.3°F5.7°C 90% 2.2 mph NW3.5 kmh NW 2.9 mph4.7 kmh 30.17 in1021.7 mb 0.00 in0.0 mm 0.00 in0.0 mm 0.20 in5.1 mm
09:07 AM 45.0°F7.2°C 42.3°F5.7°C 90% 1.8 mph NW2.9 kmh NW 3.1 mph5.0 kmh 30.17 in1021.7 mb 0.00 in0.0 mm 0.00 in0.0 mm 0.20 in5.1 mm
09:09 AM 45.1°F7.3°C 42.4°F5.8°C 90% 2.9 mph W4.7 kmh W 5.4 mph8.7 kmh 30.17 in1021.7 mb 0.00 in0.0 mm 0.00 in0.0 mm 0.20 in5.1 mm
09:11 AM 45.1°F7.3°C 42.4°F5.8°C 90% 1.8 mph W2.9 kmh W 3.6 mph5.8 kmh 30.17 in1021.7 mb 0.00 in0.0 mm 0.00 in0.0 mm 0.20 in5.1 mm
09:14 AM 45.1°F7.3°C 42.4°F5.8°C 90% 2.2 mph 3.5 kmh 5.1 mph8.2 kmh 30.17 in1021.7 mb 0.00 in0.0 mm 0.00 in0.0 mm 0.20 in5.1 mm
09:16 AM 45.1°F7.3°C 42.4°F5.8°C 90% 2.0 mph 3.2 kmh 3.4 mph5.5 kmh 30.17 in1021.7 mb 0.00 in0.0 mm 0.00 in0.0 mm 0.20 in5.1 mm
09:18 AM 45.3°F7.4°C 42.6°F5.9°C 90% 2.0 mph NW3.2 kmh NW 3.6 mph5.8 kmh 30.17 in1021.7 mb 0.00 in0.0 mm 0.00 in0.0 mm 0.20 in5.1 mm
09:20 AM 45.1°F7.3°C 42.4°F5.8°C 90% 1.8 mph WNW2.9 kmh WNW 2.2 mph3.5 kmh 30.17 in1021.7 mb 0.00 in0.0 mm 0.00 in0.0 mm 0.20 in5.1 mm
09:22 AM 45.1°F7.3°C 42.4°F5.8°C 90% 2.7 mph WNW4.3 kmh WNW 8.9 mph14.3 kmh 30.17 in1021.7 mb 0.00 in0.0 mm 0.00 in0.0 mm 0.20 in5.1 mm
09:24 AM 45.1°F7.3°C 42.4°F5.8°C 90% 2.2 mph WSW3.5 kmh WSW 3.8 mph6.1 kmh 30.17 in1021.7 mb 0.00 in0.0 mm 0.00 in0.0 mm 0.20 in5.1 mm
09:27 AM 45.1°F7.3°C 42.1°F5.6°C 89% 2.5 mph NW4.0 kmh NW 3.1 mph5.0 kmh 30.17 in1021.7 mb 0.00 in0.0 mm 0.00 in0.0 mm 0.20 in5.1 mm
09:29 AM 45.3°F7.4°C 42.3°F5.7°C 89% 1.8 mph W2.9 kmh W 3.1 mph5.0 kmh 30.17 in1021.7 mb 0.00 in0.0 mm 0.00 in0.0 mm 0.20 in5.1 mm
09:31 AM 45.1°F7.3°C 42.1°F5.6°C 89% 2.2 mph W3.5 kmh W 4.5 mph7.2 kmh 30.17 in1021.7 mb 0.00 in0.0 mm 0.00 in0.0 mm 0.20 in5.1 mm
09:33 AM 45.3°F7.4°C 42.3°F5.7°C 89% 1.8 mph 2.9 kmh 2.2 mph3.5 kmh 30.17 in1021.7 mb 0.00 in0.0 mm 0.00 in0.0 mm 0.20 in5.1 mm
09:36 AM 45.3°F7.4°C 42.3°F5.7°C 89% 1.3 mph NNW2.1 kmh NNW 2.7 mph4.3 kmh 30.18 in1022.0 mb 0.00 in0.0 mm 0.00 in0.0 mm 0.20 in5.1 mm
09:38 AM 45.5°F7.5°C 42.4°F5.8°C 89% 1.1 mph 1.8 kmh 1.6 mph2.6 kmh 30.17 in1021.7 mb 0.00 in0.0 mm 0.00 in0.0 mm 0.20 in5.1 mm
09:40 AM 45.5°F7.5°C 42.4°F5.8°C 89% 1.8 mph NNW2.9 kmh NNW 5.1 mph8.2 kmh 30.18 in1022.0 mb 0.00 in0.0 mm 0.00 in0.0 mm 0.20 in5.1 mm
09:42 AM 45.3°F7.4°C 42.3°F5.7°C 89% 1.6 mph W2.6 kmh W 3.1 mph5.0 kmh 30.18 in1022.0 mb 0.00 in0.0 mm 0.00 in0.0 mm 0.20 in5.1 mm
09:44 AM 45.3°F7.4°C 42.3°F5.7°C 89% 2.0 mph 3.2 kmh 4.3 mph6.9 kmh 30.18 in1022.0 mb 0.00 in0.0 mm 0.00 in0.0 mm 0.20 in5.1 mm
09:47 AM 45.3°F7.4°C 41.9°F5.5°C 88% 1.6 mph NNW2.6 kmh NNW 2.5 mph4.0 kmh 30.18 in1022.0 mb 0.00 in0.0 mm 0.00 in0.0 mm 0.20 in5.1 mm
09:49 AM 45.3°F7.4°C 41.9°F5.5°C 88% 1.1 mph WNW1.8 kmh WNW 1.1 mph1.8 kmh 30.18 in1022.0 mb 0.00 in0.0 mm 0.00 in0.0 mm 0.20 in5.1 mm
09:51 AM 45.5°F7.5°C 42.1°F5.6°C 88% 1.1 mph W1.8 kmh W 1.8 mph2.9 kmh 30.18 in1022.0 mb 0.00 in0.0 mm 0.00 in0.0 mm 0.20 in5.1 mm
09:53 AM 45.5°F7.5°C 42.1°F5.6°C 88% 1.1 mph SW1.8 kmh SW 2.7 mph4.3 kmh 30.18 in1022.0 mb 0.00 in0.0 mm 0.00 in0.0 mm 0.20 in5.1 mm
09:55 AM 45.3°F7.4°C 41.9°F5.5°C 88% 2.0 mph WNW3.2 kmh WNW 5.6 mph9.0 kmh 30.19 in1022.4 mb 0.00 in0.0 mm 0.00 in0.0 mm 0.20 in5.1 mm
09:57 AM 45.3°F7.4°C 41.9°F5.5°C 88% 2.5 mph WNW4.0 kmh WNW 5.4 mph8.7 kmh 30.19 in1022.4 mb 0.00 in0.0 mm 0.00 in0.0 mm 0.20 in5.1 mm
10:00 AM 45.5°F7.5°C 42.1°F5.6°C 88% 1.6 mph W2.6 kmh W 1.1 mph1.8 kmh 30.19 in1022.4 mb 0.00 in0.0 mm 0.00 in0.0 mm 0.20 in5.1 mm
10:02 AM 45.5°F7.5°C 42.1°F5.6°C 88% 1.6 mph WSW2.6 kmh WSW 4.3 mph6.9 kmh 30.19 in1022.4 mb 0.00 in0.0 mm 0.00 in0.0 mm 0.20 in5.1 mm
10:04 AM 45.5°F7.5°C 42.1°F5.6°C 88% 1.8 mph 2.9 kmh 4.3 mph6.9 kmh 30.19 in1022.4 mb 0.00 in0.0 mm 0.00 in0.0 mm 0.20 in5.1 mm
10:06 AM 45.3°F7.4°C 41.7°F5.4°C 87% 2.5 mph WSW4.0 kmh WSW 5.8 mph9.3 kmh 30.19 in1022.4 mb 0.00 in0.0 mm 0.00 in0.0 mm 0.20 in5.1 mm
10:08 AM 45.5°F7.5°C 41.9°F5.5°C 87% 1.3 mph W2.1 kmh W 1.3 mph2.1 kmh 30.19 in1022.4 mb 0.00 in0.0 mm 0.00 in0.0 mm 0.20 in5.1 mm
10:11 AM 45.5°F7.5°C 41.9°F5.5°C 87% 1.3 mph W2.1 kmh W 3.1 mph5.0 kmh 30.20 in1022.7 mb 0.00 in0.0 mm 0.00 in0.0 mm 0.20 in5.1 mm
10:13 AM 45.5°F7.5°C 41.9°F5.5°C 87% 1.6 mph NNW2.6 kmh NNW 3.4 mph5.5 kmh 30.19 in1022.4 mb 0.00 in0.0 mm 0.00 in0.0 mm 0.20 in5.1 mm
10:15 AM 45.3°F7.4°C 41.7°F5.4°C 87% 1.3 mph WSW2.1 kmh WSW 2.5 mph4.0 kmh 30.20 in1022.7 mb 0.00 in0.0 mm 0.00 in0.0 mm 0.20 in5.1 mm
10:17 AM 45.5°F7.5°C 41.9°F5.5°C 87% 1.3 mph NW2.1 kmh NW 3.8 mph6.1 kmh 30.19 in1022.4 mb 0.00 in0.0 mm 0.00 in0.0 mm 0.20 in5.1 mm
10:20 AM 45.5°F7.5°C 41.9°F5.5°C 87% 1.3 mph W2.1 kmh W 2.2 mph3.5 kmh 30.19 in1022.4 mb 0.00 in0.0 mm 0.00 in0.0 mm 0.20 in5.1 mm
10:22 AM 45.3°F7.4°C 41.4°F5.2°C 86% 1.8 mph W2.9 kmh W 4.5 mph7.2 kmh 30.19 in1022.4 mb 0.00 in0.0 mm 0.00 in0.0 mm 0.20 in5.1 mm
10:24 AM 45.1°F7.3°C 41.2°F5.1°C 86% 1.6 mph WSW2.6 kmh WSW 2.9 mph4.7 kmh 30.19 in1022.4 mb 0.00 in0.0 mm 0.00 in0.0 mm 0.20 in5.1 mm
10:26 AM 45.1°F7.3°C 41.2°F5.1°C 86% 1.3 mph WNW2.1 kmh WNW 1.6 mph2.6 kmh 30.20 in1022.7 mb 0.00 in0.0 mm 0.00 in0.0 mm 0.20 in5.1 mm
10:29 AM 45.1°F7.3°C 41.2°F5.1°C 86% 2.2 mph 3.5 kmh 4.7 mph7.6 kmh 30.19 in1022.4 mb 0.00 in0.0 mm 0.00 in0.0 mm 0.20 in5.1 mm
10:31 AM 45.1°F7.3°C 41.2°F5.1°C 86% 1.6 mph NNW2.6 kmh NNW 3.1 mph5.0 kmh 30.19 in1022.4 mb 0.00 in0.0 mm 0.00 in0.0 mm 0.20 in5.1 mm
10:33 AM 45.1°F7.3°C 41.2°F5.1°C 86% 1.6 mph NNW2.6 kmh NNW 2.2 mph3.5 kmh 30.20 in1022.7 mb 0.00 in0.0 mm 0.00 in0.0 mm 0.20 in5.1 mm
10:35 AM 45.1°F7.3°C 40.8°F4.9°C 85% 1.1 mph NW1.8 kmh NW 2.7 mph4.3 kmh 30.19 in1022.4 mb 0.00 in0.0 mm 0.00 in0.0 mm 0.20 in5.1 mm
10:37 AM 45.1°F7.3°C 40.8°F4.9°C 85% 1.8 mph W2.9 kmh W 4.9 mph7.9 kmh 30.19 in1022.4 mb 0.00 in0.0 mm 0.00 in0.0 mm 0.20 in5.1 mm
10:40 AM 45.1°F7.3°C 40.8°F4.9°C 85% 1.6 mph WSW2.6 kmh WSW 3.1 mph5.0 kmh 30.19 in1022.4 mb 0.00 in0.0 mm 0.00 in0.0 mm 0.20 in5.1 mm
10:42 AM 45.1°F7.3°C 40.8°F4.9°C 85% 1.8 mph WNW2.9 kmh WNW 3.8 mph6.1 kmh 30.19 in1022.4 mb 0.00 in0.0 mm 0.00 in0.0 mm 0.20 in5.1 mm
10:44 AM 45.1°F7.3°C 40.8°F4.9°C 85% 1.8 mph WSW2.9 kmh WSW 6.7 mph10.8 kmh 30.19 in1022.4 mb 0.00 in0.0 mm 0.00 in0.0 mm 0.20 in5.1 mm
10:46 AM 45.1°F7.3°C 40.8°F4.9°C 85% 1.8 mph W2.9 kmh W 3.6 mph5.8 kmh 30.20 in1022.7 mb 0.00 in0.0 mm 0.00 in0.0 mm 0.20 in5.1 mm
10:49 AM 45.1°F7.3°C 40.8°F4.9°C 85% 1.8 mph NNW2.9 kmh NNW 4.9 mph7.9 kmh 30.19 in1022.4 mb 0.00 in0.0 mm 0.00 in0.0 mm 0.20 in5.1 mm
10:51 AM 45.1°F7.3°C 40.6°F4.8°C 84% 2.7 mph WNW4.3 kmh WNW 6.5 mph10.5 kmh 30.19 in1022.4 mb 0.00 in0.0 mm 0.00 in0.0 mm 0.20 in5.1 mm
10:53 AM 45.1°F7.3°C 40.6°F4.8°C 84% 3.6 mph W5.8 kmh W 9.2 mph14.8 kmh 30.19 in1022.4 mb 0.00 in0.0 mm 0.00 in0.0 mm 0.20 in5.1 mm
10:55 AM 45.3°F7.4°C 40.1°F4.5°C 82% 4.3 mph SW6.9 kmh SW 6.5 mph10.5 kmh 30.19 in1022.4 mb 0.00 in0.0 mm 0.00 in0.0 mm 0.20 in5.1 mm
10:57 AM 45.5°F7.5°C 40.3°F4.6°C 82% 4.0 mph WSW6.4 kmh WSW 6.0 mph9.7 kmh 30.19 in1022.4 mb 0.00 in0.0 mm 0.00 in0.0 mm 0.20 in5.1 mm
10:59 AM 45.7°F7.6°C 40.5°F4.7°C 82% 3.1 mph NNE5.0 kmh NNE 3.6 mph5.8 kmh 30.19 in1022.4 mb 0.00 in0.0 mm 0.00 in0.0 mm 0.20 in5.1 mm
11:01 AM 46.0°F7.8°C 40.5°F4.7°C 81% 2.7 mph NW4.3 kmh NW 6.7 mph10.8 kmh 30.19 in1022.4 mb 0.00 in0.0 mm 0.00 in0.0 mm 0.20 in5.1 mm
11:03 AM 46.0°F7.8°C 40.5°F4.7°C 81% 3.1 mph WSW5.0 kmh WSW 6.9 mph11.1 kmh 30.19 in1022.4 mb 0.00 in0.0 mm 0.00 in0.0 mm 0.20 in5.1 mm
11:06 AM 46.2°F7.9°C 40.6°F4.8°C 81% 2.9 mph NNW4.7 kmh NNW 4.9 mph7.9 kmh 30.19 in1022.4 mb 0.00 in0.0 mm 0.00 in0.0 mm 0.20 in5.1 mm
11:08 AM 46.4°F8.0°C 40.6°F4.8°C 80% 2.7 mph WNW4.3 kmh WNW 4.3 mph6.9 kmh 30.19 in1022.4 mb 0.00 in0.0 mm 0.00 in0.0 mm 0.20 in5.1 mm
11:10 AM 46.6°F8.1°C 40.8°F4.9°C 80% 2.5 mph NW4.0 kmh NW 4.0 mph6.4 kmh 30.19 in1022.4 mb 0.00 in0.0 mm 0.00 in0.0 mm 0.20 in5.1 mm
11:12 AM 46.6°F8.1°C 40.8°F4.9°C 80% 3.8 mph W6.1 kmh W 9.6 mph15.4 kmh 30.19 in1022.4 mb 0.00 in0.0 mm 0.00 in0.0 mm 0.20 in5.1 mm
11:15 AM 46.4°F8.0°C 39.9°F4.4°C 78% 3.4 mph NNE5.5 kmh NNE 4.5 mph7.2 kmh 30.18 in1022.0 mb 0.00 in0.0 mm 0.00 in0.0 mm 0.20 in5.1 mm
11:17 AM 46.6°F8.1°C 40.1°F4.5°C 78% 3.1 mph S5.0 kmh S 4.0 mph6.4 kmh 30.18 in1022.0 mb 0.00 in0.0 mm 0.00 in0.0 mm 0.20 in5.1 mm
11:19 AM 46.4°F8.0°C 39.6°F4.2°C 77% 4.3 mph WNW6.9 kmh WNW 8.5 mph13.7 kmh 30.18 in1022.0 mb 0.00 in0.0 mm 0.00 in0.0 mm 0.20 in5.1 mm
11:21 AM 46.2°F7.9°C 39.0°F3.9°C 76% 4.9 mph W7.9 kmh W 8.3 mph13.4 kmh 30.18 in1022.0 mb 0.00 in0.0 mm 0.00 in0.0 mm 0.20 in5.1 mm
11:23 AM 46.2°F7.9°C 39.0°F3.9°C 76% 4.0 mph NNE6.4 kmh NNE 6.3 mph10.1 kmh 30.18 in1022.0 mb 0.00 in0.0 mm 0.00 in0.0 mm 0.20 in5.1 mm
11:25 AM 46.2°F7.9°C 39.0°F3.9°C 76% 3.6 mph W5.8 kmh W 5.1 mph8.2 kmh 30.18 in1022.0 mb 0.00 in0.0 mm 0.00 in0.0 mm 0.20 in5.1 mm
11:28 AM 46.6°F8.1°C 39.7°F4.3°C 77% 2.5 mph S4.0 kmh S 3.1 mph5.0 kmh 30.18 in1022.0 mb 0.00 in0.0 mm 0.00 in0.0 mm 0.20 in5.1 mm
11:30 AM 46.6°F8.1°C 39.4°F4.1°C 76% 2.2 mph W3.5 kmh W 3.8 mph6.1 kmh 30.18 in1022.0 mb 0.00 in0.0 mm 0.00 in0.0 mm 0.20 in5.1 mm
11:32 AM 46.6°F8.1°C 39.4°F4.1°C 76% 3.1 mph NW5.0 kmh NW 4.5 mph7.2 kmh 30.18 in1022.0 mb 0.00 in0.0 mm 0.00 in0.0 mm 0.20 in5.1 mm
11:34 AM 46.6°F8.1°C 39.4°F4.1°C 76% 4.0 mph WSW6.4 kmh WSW 9.6 mph15.4 kmh 30.17 in1021.7 mb 0.00 in0.0 mm 0.00 in0.0 mm 0.20 in5.1 mm
11:36 AM 46.6°F8.1°C 39.0°F3.9°C 75% 4.3 mph W6.9 kmh W 10.1 mph16.3 kmh 30.18 in1022.0 mb 0.00 in0.0 mm 0.00 in0.0 mm 0.20 in5.1 mm
11:39 AM 46.6°F8.1°C 39.0°F3.9°C 75% 3.6 mph W5.8 kmh W 5.1 mph8.2 kmh 30.18 in1022.0 mb 0.00 in0.0 mm 0.00 in0.0 mm 0.20 in5.1 mm
11:41 AM 46.8°F8.2°C 39.2°F4.0°C 75% 3.8 mph NW6.1 kmh NW 5.4 mph8.7 kmh 30.17 in1021.7 mb 0.00 in0.0 mm 0.00 in0.0 mm 0.20 in5.1 mm
11:43 AM 46.9°F8.3°C 39.4°F4.1°C 75% 2.9 mph 4.7 kmh 7.6 mph12.2 kmh 30.17 in1021.7 mb 0.00 in0.0 mm 0.00 in0.0 mm 0.20 in5.1 mm
11:45 AM 46.9°F8.3°C 39.4°F4.1°C 75% 3.1 mph W5.0 kmh W 5.1 mph8.2 kmh 30.17 in1021.7 mb 0.00 in0.0 mm 0.00 in0.0 mm 0.20 in5.1 mm
11:47 AM 46.9°F8.3°C 39.0°F3.9°C 74% 3.8 mph WNW6.1 kmh WNW 9.2 mph14.8 kmh 30.17 in1021.7 mb 0.00 in0.0 mm 0.00 in0.0 mm 0.20 in5.1 mm
11:50 AM 46.9°F8.3°C 39.0°F3.9°C 74% 3.6 mph WNW5.8 kmh WNW 7.6 mph12.2 kmh 30.17 in1021.7 mb 0.00 in0.0 mm 0.00 in0.0 mm 0.20 in5.1 mm
11:52 AM 46.9°F8.3°C 39.0°F3.9°C 74% 2.9 mph NW4.7 kmh NW 4.0 mph6.4 kmh 30.17 in1021.7 mb 0.00 in0.0 mm 0.00 in0.0 mm 0.20 in5.1 mm
11:56 AM 46.9°F8.3°C 38.7°F3.7°C 73% 2.9 mph NNW4.7 kmh NNW 4.0 mph6.4 kmh 30.17 in1021.7 mb 0.00 in0.0 mm 0.00 in0.0 mm 0.20 in5.1 mm
11:59 AM 47.3°F8.5°C 39.0°F3.9°C 73% 3.1 mph WNW5.0 kmh WNW 4.9 mph7.9 kmh 30.17 in1021.7 mb 0.00 in0.0 mm 0.00 in0.0 mm 0.20 in5.1 mm
12:01 PM 47.5°F8.6°C 39.2°F4.0°C 73% 2.9 mph WSW4.7 kmh WSW 6.3 mph10.1 kmh 30.17 in1021.7 mb 0.00 in0.0 mm 0.00 in0.0 mm 0.20 in5.1 mm
12:03 PM 47.3°F8.5°C 38.3°F3.5°C 71% 3.6 mph WNW5.8 kmh WNW 10.3 mph16.6 kmh 30.17 in1021.7 mb 0.00 in0.0 mm 0.00 in0.0 mm 0.20 in5.1 mm
12:05 PM 47.3°F8.5°C 37.9°F3.3°C 70% 4.7 mph NW7.6 kmh NW 8.3 mph13.4 kmh 30.17 in1021.7 mb 0.00 in0.0 mm 0.00 in0.0 mm 0.20 in5.1 mm
12:07 PM 47.5°F8.6°C 37.8°F3.2°C 69% 4.9 mph NNW7.9 kmh NNW 7.4 mph11.9 kmh 30.17 in1021.7 mb 0.00 in0.0 mm 0.00 in0.0 mm 0.20 in5.1 mm
12:09 PM 47.5°F8.6°C 37.8°F3.2°C 69% 5.1 mph W8.2 kmh W 10.5 mph16.9 kmh 30.16 in1021.3 mb 0.00 in0.0 mm 0.00 in0.0 mm 0.20 in5.1 mm
12:11 PM 47.5°F8.6°C 37.4°F3.0°C 68% 5.1 mph NNW8.2 kmh NNW 12.1 mph19.5 kmh 30.16 in1021.3 mb 0.00 in0.0 mm 0.00 in0.0 mm 0.20 in5.1 mm
12:13 PM 47.7°F8.7°C 37.9°F3.3°C 69% 4.0 mph WNW6.4 kmh WNW 10.1 mph16.3 kmh 30.17 in1021.7 mb 0.00 in0.0 mm 0.00 in0.0 mm 0.20 in5.1 mm
12:15 PM 47.8°F8.8°C 37.8°F3.2°C 68% 4.9 mph NW7.9 kmh NW 10.1 mph16.3 kmh 30.16 in1021.3 mb 0.00 in0.0 mm 0.00 in0.0 mm 0.20 in5.1 mm
12:17 PM 48.0°F8.9°C 37.9°F3.3°C 68% 4.9 mph NNW7.9 kmh NNW 8.1 mph13.0 kmh 30.17 in1021.7 mb 0.00 in0.0 mm 0.00 in0.0 mm 0.20 in5.1 mm
12:20 PM 48.0°F8.9°C 37.6°F3.1°C 67% 4.7 mph W7.6 kmh W 8.3 mph13.4 kmh 30.16 in1021.3 mb 0.00 in0.0 mm 0.00 in0.0 mm 0.20 in5.1 mm
12:22 PM 48.0°F8.9°C 37.6°F3.1°C 67% 3.8 mph SE6.1 kmh SE 8.3 mph13.4 kmh 30.17 in1021.7 mb 0.00 in0.0 mm 0.00 in0.0 mm 0.20 in5.1 mm
12:24 PM 48.0°F8.9°C 37.6°F3.1°C 67% 4.0 mph WNW6.4 kmh WNW 7.2 mph11.6 kmh 30.16 in1021.3 mb 0.00 in0.0 mm 0.00 in0.0 mm 0.20 in5.1 mm
12:26 PM 48.0°F8.9°C 37.6°F3.1°C 67% 4.5 mph WSW7.2 kmh WSW 6.0 mph9.7 kmh 30.17 in1021.7 mb 0.00 in0.0 mm 0.00 in0.0 mm 0.20 in5.1 mm
12:29 PM 48.0°F8.9°C 37.6°F3.1°C 67% 5.4 mph WNW8.7 kmh WNW 8.9 mph14.3 kmh 30.17 in1021.7 mb 0.00 in0.0 mm 0.00 in0.0 mm 0.20 in5.1 mm
12:31 PM 48.0°F8.9°C 37.6°F3.1°C 67% 3.8 mph NW6.1 kmh NW 8.3 mph13.4 kmh 30.16 in1021.3 mb 0.00 in0.0 mm 0.00 in0.0 mm 0.20 in5.1 mm
12:33 PM 48.0°F8.9°C 37.6°F3.1°C 67% 4.0 mph WNW6.4 kmh WNW 5.1 mph8.2 kmh 30.17 in1021.7 mb 0.00 in0.0 mm 0.00 in0.0 mm 0.20 in5.1 mm
12:36 PM 48.2°F9.0°C 37.4°F3.0°C 66% 4.0 mph 6.4 kmh 6.9 mph11.1 kmh 30.16 in1021.3 mb 0.00 in0.0 mm 0.00 in0.0 mm 0.20 in5.1 mm
12:38 PM 48.4°F9.1°C 37.6°F3.1°C 66% 3.8 mph WNW6.1 kmh WNW 6.5 mph10.5 kmh 30.16 in1021.3 mb 0.00 in0.0 mm 0.00 in0.0 mm 0.20 in5.1 mm
12:40 PM 48.4°F9.1°C 37.2°F2.9°C 65% 4.0 mph NW6.4 kmh NW 7.2 mph11.6 kmh 30.16 in1021.3 mb 0.00 in0.0 mm 0.00 in0.0 mm 0.20 in5.1 mm
12:42 PM 48.4°F9.1°C 37.2°F2.9°C 65% 3.4 mph WNW5.5 kmh WNW 4.5 mph7.2 kmh 30.16 in1021.3 mb 0.00 in0.0 mm 0.00 in0.0 mm 0.20 in5.1 mm
12:45 PM 48.4°F9.1°C 37.6°F3.1°C 66% 3.8 mph WNW6.1 kmh WNW 6.9 mph11.1 kmh 30.16 in1021.3 mb 0.00 in0.0 mm 0.00 in0.0 mm 0.20 in5.1 mm
12:47 PM 48.4°F9.1°C 36.7°F2.6°C 64% 3.6 mph NNW5.8 kmh NNW 14.1 mph22.7 kmh 30.16 in1021.3 mb 0.00 in0.0 mm 0.00 in0.0 mm 0.20 in5.1 mm
12:49 PM 48.4°F9.1°C 36.7°F2.6°C 64% 4.0 mph 6.4 kmh 8.7 mph14.0 kmh 30.16 in1021.3 mb 0.00 in0.0 mm 0.00 in0.0 mm 0.20 in5.1 mm
12:51 PM 48.6°F9.2°C 37.4°F3.0°C 65% 4.0 mph WNW6.4 kmh WNW 7.8 mph12.6 kmh 30.16 in1021.3 mb 0.00 in0.0 mm 0.00 in0.0 mm 0.20 in5.1 mm
12:54 PM 48.6°F9.2°C 36.9°F2.7°C 64% 4.3 mph NW6.9 kmh NW 9.2 mph14.8 kmh 30.16 in1021.3 mb 0.00 in0.0 mm 0.00 in0.0 mm 0.20 in5.1 mm
12:56 PM 48.7°F9.3°C 37.0°F2.8°C 64% 3.1 mph NNE5.0 kmh NNE 4.5 mph7.2 kmh 30.16 in1021.3 mb 0.00 in0.0 mm 0.00 in0.0 mm 0.20 in5.1 mm
12:58 PM 48.7°F9.3°C 37.0°F2.8°C 64% 2.7 mph WSW4.3 kmh WSW 4.5 mph7.2 kmh 30.16 in1021.3 mb 0.00 in0.0 mm 0.00 in0.0 mm 0.20 in5.1 mm
01:00 PM 48.7°F9.3°C 37.0°F2.8°C 64% 2.9 mph WNW4.7 kmh WNW 4.5 mph7.2 kmh 30.16 in1021.3 mb 0.00 in0.0 mm 0.00 in0.0 mm 0.20 in5.1 mm
01:03 PM 48.9°F9.4°C 36.9°F2.7°C 63% 4.0 mph WNW6.4 kmh WNW 11.2 mph18.0 kmh 30.16 in1021.3 mb 0.00 in0.0 mm 0.00 in0.0 mm 0.20 in5.1 mm
01:05 PM 48.7°F9.3°C 36.7°F2.6°C 63% 4.7 mph 7.6 kmh 8.9 mph14.3 kmh 30.16 in1021.3 mb 0.00 in0.0 mm 0.00 in0.0 mm 0.20 in5.1 mm
01:07 PM 48.7°F9.3°C 37.0°F2.8°C 64% 4.5 mph WNW7.2 kmh WNW 6.0 mph9.7 kmh 30.16 in1021.3 mb 0.00 in0.0 mm 0.00 in0.0 mm 0.20 in5.1 mm
01:09 PM 48.7°F9.3°C 37.6°F3.1°C 65% 4.9 mph W7.9 kmh W 8.1 mph13.0 kmh 30.16 in1021.3 mb 0.00 in0.0 mm 0.00 in0.0 mm 0.20 in5.1 mm
01:11 PM 48.7°F9.3°C 37.0°F2.8°C 64% 4.5 mph 7.2 kmh 11.6 mph18.7 kmh 30.16 in1021.3 mb 0.00 in0.0 mm 0.00 in0.0 mm 0.20 in5.1 mm
01:16 PM 48.6°F9.2°C 36.9°F2.7°C 64% 3.4 mph NW5.5 kmh NW 4.9 mph7.9 kmh 30.16 in1021.3 mb 0.00 in0.0 mm 0.00 in0.0 mm 0.20 in5.1 mm
01:18 PM 48.6°F9.2°C 36.9°F2.7°C 64% 3.6 mph NNW5.8 kmh NNW 5.1 mph8.2 kmh 30.16 in1021.3 mb 0.00 in0.0 mm 0.00 in0.0 mm 0.20 in5.1 mm
01:20 PM 48.7°F9.3°C 37.0°F2.8°C 64% 3.8 mph NNW6.1 kmh NNW 6.5 mph10.5 kmh 30.16 in1021.3 mb 0.00 in0.0 mm 0.00 in0.0 mm 0.20 in5.1 mm
01:22 PM 48.7°F9.3°C 37.0°F2.8°C 64% 3.8 mph WNW6.1 kmh WNW 9.2 mph14.8 kmh 30.16 in1021.3 mb 0.00 in0.0 mm 0.00 in0.0 mm 0.20 in5.1 mm
01:24 PM 48.7°F9.3°C 37.0°F2.8°C 64% 4.7 mph W7.6 kmh W 13.6 mph21.9 kmh 30.16 in1021.3 mb 0.00 in0.0 mm 0.00 in0.0 mm 0.20 in5.1 mm
01:29 PM 48.6°F9.2°C 36.9°F2.7°C 64% 4.7 mph NNW7.6 kmh NNW 8.1 mph13.0 kmh 30.16 in1021.3 mb 0.00 in0.0 mm 0.00 in0.0 mm 0.20 in5.1 mm
01:31 PM 48.6°F9.2°C 37.4°F3.0°C 65% 5.1 mph W8.2 kmh W 8.9 mph14.3 kmh 30.16 in1021.3 mb 0.00 in0.0 mm 0.00 in0.0 mm 0.20 in5.1 mm
01:33 PM 48.7°F9.3°C 37.0°F2.8°C 64% 5.6 mph WNW9.0 kmh WNW 9.4 mph15.1 kmh 30.16 in1021.3 mb 0.00 in0.0 mm 0.00 in0.0 mm 0.20 in5.1 mm
01:35 PM 48.7°F9.3°C 37.0°F2.8°C 64% 4.7 mph NNW7.6 kmh NNW 5.8 mph9.3 kmh 30.16 in1021.3 mb 0.00 in0.0 mm 0.00 in0.0 mm 0.20 in5.1 mm
01:38 PM 48.7°F9.3°C 37.0°F2.8°C 64% 4.3 mph W6.9 kmh W 5.8 mph9.3 kmh 30.16 in1021.3 mb 0.00 in0.0 mm 0.00 in0.0 mm 0.20 in5.1 mm
01:42 PM 48.7°F9.3°C 37.0°F2.8°C 64% 3.4 mph W5.5 kmh W 5.4 mph8.7 kmh 30.16 in1021.3 mb 0.00 in0.0 mm 0.00 in0.0 mm 0.20 in5.1 mm
01:44 PM 48.9°F9.4°C 37.8°F3.2°C 65% 2.9 mph 4.7 kmh 4.0 mph6.4 kmh 30.16 in1021.3 mb 0.00 in0.0 mm 0.00 in0.0 mm 0.20 in5.1 mm
01:47 PM 48.9°F9.4°C 37.8°F3.2°C 65% 4.7 mph WNW7.6 kmh WNW 10.3 mph16.6 kmh 30.16 in1021.3 mb 0.00 in0.0 mm 0.00 in0.0 mm 0.20 in5.1 mm
01:49 PM 48.9°F9.4°C 37.8°F3.2°C 65% 4.5 mph SSE7.2 kmh SSE 8.3 mph13.4 kmh 30.16 in1021.3 mb 0.00 in0.0 mm 0.00 in0.0 mm 0.20 in5.1 mm
01:51 PM 48.9°F9.4°C 37.8°F3.2°C 65% 4.7 mph WNW7.6 kmh WNW 7.4 mph11.9 kmh 30.16 in1021.3 mb 0.00 in0.0 mm 0.00 in0.0 mm 0.20 in5.1 mm
01:53 PM 49.1°F9.5°C 37.8°F3.2°C 65% 4.3 mph NNE6.9 kmh NNE 6.0 mph9.7 kmh 30.16 in1021.3 mb 0.00 in0.0 mm 0.00 in0.0 mm 0.20 in5.1 mm
01:55 PM 49.1°F9.5°C 37.8°F3.2°C 65% 4.0 mph NW6.4 kmh NW 11.6 mph18.7 kmh 30.16 in1021.3 mb 0.00 in0.0 mm 0.00 in0.0 mm 0.20 in5.1 mm
01:57 PM 49.1°F9.5°C 37.4°F3.0°C 64% 5.1 mph NW8.2 kmh NW 9.2 mph14.8 kmh 30.16 in1021.3 mb 0.00 in0.0 mm 0.00 in0.0 mm 0.20 in5.1 mm
02:00 PM 48.9°F9.4°C 37.2°F2.9°C 64% 4.9 mph WNW7.9 kmh WNW 9.2 mph14.8 kmh 30.16 in1021.3 mb 0.00 in0.0 mm 0.00 in0.0 mm 0.20 in5.1 mm
02:02 PM 48.7°F9.3°C 37.0°F2.8°C 64% 4.3 mph 6.9 kmh 8.1 mph13.0 kmh 30.16 in1021.3 mb 0.00 in0.0 mm 0.00 in0.0 mm 0.20 in5.1 mm
02:04 PM 48.7°F9.3°C 37.0°F2.8°C 64% 4.5 mph NNW7.2 kmh NNW 7.8 mph12.6 kmh 30.16 in1021.3 mb 0.00 in0.0 mm 0.00 in0.0 mm 0.20 in5.1 mm
02:06 PM 48.7°F9.3°C 37.0°F2.8°C 64% 4.0 mph WNW6.4 kmh WNW 5.4 mph8.7 kmh 30.16 in1021.3 mb 0.00 in0.0 mm 0.00 in0.0 mm 0.20 in5.1 mm
02:09 PM 48.7°F9.3°C 37.0°F2.8°C 64% 5.1 mph 8.2 kmh 8.3 mph13.4 kmh 30.16 in1021.3 mb 0.00 in0.0 mm 0.00 in0.0 mm 0.20 in5.1 mm
02:11 PM 48.7°F9.3°C 37.0°F2.8°C 64% 4.0 mph NNW6.4 kmh NNW 6.5 mph10.5 kmh 30.16 in1021.3 mb 0.00 in0.0 mm 0.00 in0.0 mm 0.20 in5.1 mm
02:13 PM 48.7°F9.3°C 37.0°F2.8°C 64% 4.3 mph WSW6.9 kmh WSW 5.8 mph9.3 kmh 30.16 in1021.3 mb 0.00 in0.0 mm 0.00 in0.0 mm 0.20 in5.1 mm
02:15 PM 48.9°F9.4°C 37.2°F2.9°C 64% 3.8 mph NW6.1 kmh NW 8.3 mph13.4 kmh 30.15 in1021.0 mb 0.00 in0.0 mm 0.00 in0.0 mm 0.20 in5.1 mm
02:17 PM 48.9°F9.4°C 37.2°F2.9°C 64% 3.8 mph NW6.1 kmh NW 5.6 mph9.0 kmh 30.16 in1021.3 mb 0.00 in0.0 mm 0.00 in0.0 mm 0.20 in5.1 mm
02:20 PM 48.9°F9.4°C 36.9°F2.7°C 63% 4.5 mph 7.2 kmh 9.2 mph14.8 kmh 30.15 in1021.0 mb 0.00 in0.0 mm 0.00 in0.0 mm 0.20 in5.1 mm
02:22 PM 48.9°F9.4°C 36.9°F2.7°C 63% 4.0 mph WNW6.4 kmh WNW 4.5 mph7.2 kmh 30.15 in1021.0 mb 0.00 in0.0 mm 0.00 in0.0 mm 0.20 in5.1 mm
02:24 PM 48.9°F9.4°C 36.9°F2.7°C 63% 3.8 mph 6.1 kmh 6.5 mph10.5 kmh 30.15 in1021.0 mb 0.00 in0.0 mm 0.00 in0.0 mm 0.20 in5.1 mm
02:26 PM 48.7°F9.3°C 37.0°F2.8°C 64% 4.0 mph W6.4 kmh W 6.5 mph10.5 kmh 30.15 in1021.0 mb 0.00 in0.0 mm 0.00 in0.0 mm 0.20 in5.1 mm
02:28 PM 48.7°F9.3°C 37.0°F2.8°C 64% 4.3 mph W6.9 kmh W 7.2 mph11.6 kmh 30.16 in1021.3 mb 0.00 in0.0 mm 0.00 in0.0 mm 0.20 in5.1 mm
02:31 PM 48.7°F9.3°C 37.0°F2.8°C 64% 4.3 mph NW6.9 kmh NW 7.2 mph11.6 kmh 30.16 in1021.3 mb 0.00 in0.0 mm 0.00 in0.0 mm 0.20 in5.1 mm
02:33 PM 48.7°F9.3°C 37.0°F2.8°C 64% 5.4 mph WNW8.7 kmh WNW 9.6 mph15.4 kmh 30.16 in1021.3 mb 0.00 in0.0 mm 0.00 in0.0 mm 0.20 in5.1 mm
02:35 PM 48.6°F9.2°C 36.9°F2.7°C 64% 4.5 mph WNW7.2 kmh WNW 5.1 mph8.2 kmh 30.15 in1021.0 mb 0.00 in0.0 mm 0.00 in0.0 mm 0.20 in5.1 mm
02:37 PM 48.6°F9.2°C 36.5°F2.5°C 63% 4.7 mph NW7.6 kmh NW 8.3 mph13.4 kmh 30.16 in1021.3 mb 0.00 in0.0 mm 0.00 in0.0 mm 0.20 in5.1 mm
02:39 PM 48.7°F9.3°C 36.7°F2.6°C 63% 5.4 mph NW8.7 kmh NW 9.2 mph14.8 kmh 30.16 in1021.3 mb 0.00 in0.0 mm 0.00 in0.0 mm 0.20 in5.1 mm
02:42 PM 48.7°F9.3°C 36.7°F2.6°C 63% 4.5 mph W7.2 kmh W 5.1 mph8.2 kmh 30.16 in1021.3 mb 0.00 in0.0 mm 0.00 in0.0 mm 0.20 in5.1 mm
02:44 PM 48.7°F9.3°C 36.7°F2.6°C 63% 4.5 mph NNW7.2 kmh NNW 7.4 mph11.9 kmh 30.15 in1021.0 mb 0.00 in0.0 mm 0.00 in0.0 mm 0.20 in5.1 mm
02:46 PM 48.7°F9.3°C 36.7°F2.6°C 63% 4.3 mph WSW6.9 kmh WSW 6.9 mph11.1 kmh 30.15 in1021.0 mb 0.00 in0.0 mm 0.00 in0.0 mm 0.20 in5.1 mm
02:48 PM 48.6°F9.2°C 36.5°F2.5°C 63% 3.8 mph S6.1 kmh S 6.0 mph9.7 kmh 30.15 in1021.0 mb 0.00 in0.0 mm 0.00 in0.0 mm 0.20 in5.1 mm
02:51 PM 48.6°F9.2°C 36.5°F2.5°C 63% 4.3 mph WNW6.9 kmh WNW 8.7 mph14.0 kmh 30.15 in1021.0 mb 0.00 in0.0 mm 0.00 in0.0 mm 0.20 in5.1 mm
02:53 PM 48.6°F9.2°C 36.5°F2.5°C 63% 4.0 mph WNW6.4 kmh WNW 8.1 mph13.0 kmh 30.15 in1021.0 mb 0.00 in0.0 mm 0.00 in0.0 mm 0.20 in5.1 mm
02:55 PM 48.6°F9.2°C 36.1°F2.3°C 62% 4.3 mph NNW6.9 kmh NNW 7.4 mph11.9 kmh 30.15 in1021.0 mb 0.00 in0.0 mm 0.00 in0.0 mm 0.20 in5.1 mm
02:57 PM 48.4°F9.1°C 36.0°F2.2°C 62% 5.6 mph W9.0 kmh W 12.3 mph19.8 kmh 30.15 in1021.0 mb 0.00 in0.0 mm 0.00 in0.0 mm 0.20 in5.1 mm
03:00 PM 48.4°F9.1°C 36.3°F2.4°C 63% 4.7 mph 7.6 kmh 5.6 mph9.0 kmh 30.15 in1021.0 mb 0.00 in0.0 mm 0.00 in0.0 mm 0.20 in5.1 mm
03:02 PM 48.4°F9.1°C 36.3°F2.4°C 63% 3.8 mph WNW6.1 kmh WNW 6.7 mph10.8 kmh 30.15 in1021.0 mb 0.00 in0.0 mm 0.00 in0.0 mm 0.20 in5.1 mm
03:04 PM 48.2°F9.0°C 35.8°F2.1°C 62% 4.5 mph NNW7.2 kmh NNW 8.5 mph13.7 kmh 30.16 in1021.3 mb 0.00 in0.0 mm 0.00 in0.0 mm 0.20 in5.1 mm
03:06 PM 48.4°F9.1°C 36.0°F2.2°C 62% 4.0 mph W6.4 kmh W 8.3 mph13.4 kmh 30.15 in1021.0 mb 0.00 in0.0 mm 0.00 in0.0 mm 0.20 in5.1 mm
03:08 PM 48.4°F9.1°C 36.0°F2.2°C 62% 4.3 mph WSW6.9 kmh WSW 7.6 mph12.2 kmh 30.15 in1021.0 mb 0.00 in0.0 mm 0.00 in0.0 mm 0.20 in5.1 mm
03:11 PM 48.4°F9.1°C 36.0°F2.2°C 62% 4.7 mph W7.6 kmh W 9.6 mph15.4 kmh 30.15 in1021.0 mb 0.00 in0.0 mm 0.00 in0.0 mm 0.20 in5.1 mm
03:13 PM 48.4°F9.1°C 36.0°F2.2°C 62% 5.4 mph W8.7 kmh W 10.5 mph16.9 kmh 30.15 in1021.0 mb 0.00 in0.0 mm 0.00 in0.0 mm 0.20 in5.1 mm
03:15 PM 48.4°F9.1°C 36.0°F2.2°C 62% 4.0 mph 6.4 kmh 3.8 mph6.1 kmh 30.15 in1021.0 mb 0.00 in0.0 mm 0.00 in0.0 mm 0.20 in5.1 mm
03:17 PM 48.4°F9.1°C 36.0°F2.2°C 62% 3.8 mph WNW6.1 kmh WNW 6.0 mph9.7 kmh 30.15 in1021.0 mb 0.00 in0.0 mm 0.00 in0.0 mm 0.20 in5.1 mm
03:19 PM 48.4°F9.1°C 35.6°F2.0°C 61% 4.5 mph NNW7.2 kmh NNW 9.2 mph14.8 kmh 30.15 in1021.0 mb 0.00 in0.0 mm 0.00 in0.0 mm 0.20 in5.1 mm
03:22 PM 48.2°F9.0°C 35.4°F1.9°C 61% 3.8 mph WNW6.1 kmh WNW 6.0 mph9.7 kmh 30.15 in1021.0 mb 0.00 in0.0 mm 0.00 in0.0 mm 0.20 in5.1 mm
03:24 PM 48.2°F9.0°C 35.8°F2.1°C 62% 3.8 mph W6.1 kmh W 5.8 mph9.3 kmh 30.16 in1021.3 mb 0.00 in0.0 mm 0.00 in0.0 mm 0.20 in5.1 mm
03:26 PM 48.0°F8.9°C 35.2°F1.8°C 61% 4.7 mph WNW7.6 kmh WNW 10.3 mph16.6 kmh 30.16 in1021.3 mb 0.00 in0.0 mm 0.00 in0.0 mm 0.20 in5.1 mm
03:29 PM 48.0°F8.9°C 35.2°F1.8°C 61% 3.8 mph NNW6.1 kmh NNW 6.3 mph10.1 kmh 30.16 in1021.3 mb 0.00 in0.0 mm 0.00 in0.0 mm 0.20 in5.1 mm
03:31 PM 48.0°F8.9°C 35.2°F1.8°C 61% 3.8 mph NW6.1 kmh NW 5.1 mph8.2 kmh 30.16 in1021.3 mb 0.00 in0.0 mm 0.00 in0.0 mm 0.20 in5.1 mm
03:33 PM 48.0°F8.9°C 34.9°F1.6°C 60% 4.7 mph W7.6 kmh W 8.5 mph13.7 kmh 30.16 in1021.3 mb 0.00 in0.0 mm 0.00 in0.0 mm 0.20 in5.1 mm
03:35 PM 48.0°F8.9°C 34.9°F1.6°C 60% 5.8 mph 9.3 kmh 13.4 mph21.6 kmh 30.16 in1021.3 mb 0.00 in0.0 mm 0.00 in0.0 mm 0.20 in5.1 mm
03:37 PM 48.0°F8.9°C 35.2°F1.8°C 61% 4.7 mph WNW7.6 kmh WNW 5.1 mph8.2 kmh 30.16 in1021.3 mb 0.00 in0.0 mm 0.00 in0.0 mm 0.20 in5.1 mm
03:40 PM 47.8°F8.8°C 35.1°F1.7°C 61% 4.3 mph W6.9 kmh W 6.7 mph10.8 kmh 30.16 in1021.3 mb 0.00 in0.0 mm 0.00 in0.0 mm 0.20 in5.1 mm
03:42 PM 47.8°F8.8°C 35.1°F1.7°C 61% 4.5 mph SSW7.2 kmh SSW 6.0 mph9.7 kmh 30.16 in1021.3 mb 0.00 in0.0 mm 0.00 in0.0 mm 0.20 in5.1 mm
03:44 PM 47.8°F8.8°C 35.1°F1.7°C 61% 5.8 mph NW9.3 kmh NW 10.5 mph16.9 kmh 30.15 in1021.0 mb 0.00 in0.0 mm 0.00 in0.0 mm 0.20 in5.1 mm
03:46 PM 47.8°F8.8°C 35.1°F1.7°C 61% 5.4 mph NNW8.7 kmh NNW 8.7 mph14.0 kmh 30.16 in1021.3 mb 0.00 in0.0 mm 0.00 in0.0 mm 0.20 in5.1 mm
03:48 PM 47.7°F8.7°C 34.9°F1.6°C 61% 6.5 mph NW10.5 kmh NW 10.5 mph16.9 kmh 30.16 in1021.3 mb 0.00 in0.0 mm 0.00 in0.0 mm 0.20 in5.1 mm
03:51 PM 47.8°F8.8°C 35.1°F1.7°C 61% 5.4 mph WSW8.7 kmh WSW 7.4 mph11.9 kmh 30.16 in1021.3 mb 0.00 in0.0 mm 0.00 in0.0 mm 0.20 in5.1 mm
03:53 PM 47.8°F8.8°C 35.1°F1.7°C 61% 4.9 mph WNW7.9 kmh WNW 6.3 mph10.1 kmh 30.16 in1021.3 mb 0.00 in0.0 mm 0.00 in0.0 mm 0.20 in5.1 mm
03:55 PM 47.7°F8.7°C 34.9°F1.6°C 61% 3.8 mph NW6.1 kmh NW 5.4 mph8.7 kmh 30.16 in1021.3 mb 0.00 in0.0 mm 0.00 in0.0 mm 0.20 in5.1 mm
03:57 PM 47.7°F8.7°C 35.2°F1.8°C 62% 4.3 mph WNW6.9 kmh WNW 7.6 mph12.2 kmh 30.16 in1021.3 mb 0.00 in0.0 mm 0.00 in0.0 mm 0.20 in5.1 mm
03:59 PM 47.5°F8.6°C 35.1°F1.7°C 62% 4.7 mph WSW7.6 kmh WSW 7.4 mph11.9 kmh 30.16 in1021.3 mb 0.00 in0.0 mm 0.00 in0.0 mm 0.20 in5.1 mm
04:02 PM 47.5°F8.6°C 35.1°F1.7°C 62% 5.1 mph W8.2 kmh W 8.1 mph13.0 kmh 30.16 in1021.3 mb 0.00 in0.0 mm 0.00 in0.0 mm 0.20 in5.1 mm
04:04 PM 47.3°F8.5°C 34.9°F1.6°C 62% 4.9 mph WNW7.9 kmh WNW 7.4 mph11.9 kmh 30.16 in1021.3 mb 0.00 in0.0 mm 0.00 in0.0 mm 0.20 in5.1 mm
04:06 PM 47.3°F8.5°C 34.9°F1.6°C 62% 6.0 mph WNW9.7 kmh WNW 11.6 mph18.7 kmh 30.17 in1021.7 mb 0.00 in0.0 mm 0.00 in0.0 mm 0.20 in5.1 mm
04:08 PM 47.3°F8.5°C 35.4°F1.9°C 63% 5.8 mph NW9.3 kmh NW 11.6 mph18.7 kmh 30.16 in1021.3 mb 0.00 in0.0 mm 0.00 in0.0 mm 0.20 in5.1 mm
04:11 PM 47.1°F8.4°C 34.7°F1.5°C 62% 7.4 mph WNW11.9 kmh WNW 14.8 mph23.8 kmh 30.16 in1021.3 mb 0.00 in0.0 mm 0.00 in0.0 mm 0.20 in5.1 mm
04:13 PM 47.1°F8.4°C 35.2°F1.8°C 63% 6.3 mph WNW10.1 kmh WNW 8.1 mph13.0 kmh 30.16 in1021.3 mb 0.00 in0.0 mm 0.00 in0.0 mm 0.20 in5.1 mm
04:15 PM 47.1°F8.4°C 35.2°F1.8°C 63% 6.5 mph NW10.5 kmh NW 9.2 mph14.8 kmh 30.17 in1021.7 mb 0.00 in0.0 mm 0.00 in0.0 mm 0.20 in5.1 mm
04:17 PM 47.1°F8.4°C 35.2°F1.8°C 63% 6.3 mph WSW10.1 kmh WSW 11.2 mph18.0 kmh 30.17 in1021.7 mb 0.00 in0.0 mm 0.00 in0.0 mm 0.20 in5.1 mm
04:19 PM 47.1°F8.4°C 35.2°F1.8°C 63% 5.4 mph 8.7 kmh 7.6 mph12.2 kmh 30.16 in1021.3 mb 0.00 in0.0 mm 0.00 in0.0 mm 0.20 in5.1 mm
04:22 PM 47.1°F8.4°C 35.2°F1.8°C 63% 5.8 mph W9.3 kmh W 8.1 mph13.0 kmh 30.16 in1021.3 mb 0.00 in0.0 mm 0.00 in0.0 mm 0.20 in5.1 mm
04:24 PM 46.9°F8.3°C 35.1°F1.7°C 63% 5.1 mph NW8.2 kmh NW 7.6 mph12.2 kmh 30.16 in1021.3 mb 0.00 in0.0 mm 0.00 in0.0 mm 0.20 in5.1 mm
04:26 PM 46.8°F8.2°C 34.9°F1.6°C 63% 4.3 mph NW6.9 kmh NW 6.0 mph9.7 kmh 30.16 in1021.3 mb 0.00 in0.0 mm 0.00 in0.0 mm 0.20 in5.1 mm
04:28 PM 46.8°F8.2°C 34.9°F1.6°C 63% 4.9 mph 7.9 kmh 9.2 mph14.8 kmh 30.17 in1021.7 mb 0.00 in0.0 mm 0.00 in0.0 mm 0.20 in5.1 mm
04:31 PM 46.8°F8.2°C 34.9°F1.6°C 63% 5.1 mph W8.2 kmh W 7.6 mph12.2 kmh 30.17 in1021.7 mb 0.00 in0.0 mm 0.00 in0.0 mm 0.20 in5.1 mm
04:33 PM 46.6°F8.1°C 34.7°F1.5°C 63% 4.9 mph WNW7.9 kmh WNW 7.8 mph12.6 kmh 30.16 in1021.3 mb 0.00 in0.0 mm 0.00 in0.0 mm 0.20 in5.1 mm
04:35 PM 46.6°F8.1°C 35.1°F1.7°C 64% 4.5 mph NW7.2 kmh NW 6.0 mph9.7 kmh 30.16 in1021.3 mb 0.00 in0.0 mm 0.00 in0.0 mm 0.20 in5.1 mm
04:37 PM 46.6°F8.1°C 35.1°F1.7°C 64% 4.7 mph NNW7.6 kmh NNW 7.2 mph11.6 kmh 30.16 in1021.3 mb 0.00 in0.0 mm 0.00 in0.0 mm 0.20 in5.1 mm
04:40 PM 46.6°F8.1°C 35.4°F1.9°C 65% 4.0 mph W6.4 kmh W 7.4 mph11.9 kmh 30.16 in1021.3 mb 0.00 in0.0 mm 0.00 in0.0 mm 0.20 in5.1 mm
04:42 PM 46.4°F8.0°C 35.2°F1.8°C 65% 4.5 mph NW7.2 kmh NW 8.9 mph14.3 kmh 30.16 in1021.3 mb 0.00 in0.0 mm 0.00 in0.0 mm 0.20 in5.1 mm
04:44 PM 46.2°F7.9°C 35.1°F1.7°C 65% 4.3 mph NNW6.9 kmh NNW 5.6 mph9.0 kmh 30.16 in1021.3 mb 0.00 in0.0 mm 0.00 in0.0 mm 0.20 in5.1 mm
04:46 PM 46.2°F7.9°C 35.1°F1.7°C 65% 3.8 mph NW6.1 kmh NW 5.4 mph8.7 kmh 30.16 in1021.3 mb 0.00 in0.0 mm 0.00 in0.0 mm 0.20 in5.1 mm
04:48 PM 46.2°F7.9°C 35.1°F1.7°C 65% 4.9 mph NW7.9 kmh NW 12.8 mph20.6 kmh 30.16 in1021.3 mb 0.00 in0.0 mm 0.00 in0.0 mm 0.20 in5.1 mm
04:51 PM 46.2°F7.9°C 35.1°F1.7°C 65% 3.8 mph NW6.1 kmh NW 3.6 mph5.8 kmh 30.17 in1021.7 mb 0.00 in0.0 mm 0.00 in0.0 mm 0.20 in5.1 mm
04:53 PM 46.0°F7.8°C 34.9°F1.6°C 65% 3.4 mph NW5.5 kmh NW 6.7 mph10.8 kmh 30.16 in1021.3 mb 0.00 in0.0 mm 0.00 in0.0 mm 0.20 in5.1 mm
04:55 PM 46.0°F7.8°C 34.9°F1.6°C 65% 4.0 mph NNW6.4 kmh NNW 6.5 mph10.5 kmh 30.17 in1021.7 mb 0.00 in0.0 mm 0.00 in0.0 mm 0.20 in5.1 mm
04:57 PM 45.9°F7.7°C 34.7°F1.5°C 65% 4.7 mph NW7.6 kmh NW 11.9 mph19.2 kmh 30.17 in1021.7 mb 0.00 in0.0 mm 0.00 in0.0 mm 0.20 in5.1 mm
04:59 PM 45.7°F7.6°C 34.5°F1.4°C 65% 4.9 mph NW7.9 kmh NW 8.1 mph13.0 kmh 30.16 in1021.3 mb 0.00 in0.0 mm 0.00 in0.0 mm 0.20 in5.1 mm
05:02 PM 45.7°F7.6°C 34.5°F1.4°C 65% 4.0 mph NNW6.4 kmh NNW 5.1 mph8.2 kmh 30.16 in1021.3 mb 0.00 in0.0 mm 0.00 in0.0 mm 0.20 in5.1 mm
05:04 PM 45.7°F7.6°C 34.5°F1.4°C 65% 5.1 mph WNW8.2 kmh WNW 12.8 mph20.6 kmh 30.17 in1021.7 mb 0.00 in0.0 mm 0.00 in0.0 mm 0.20 in5.1 mm
05:06 PM 45.7°F7.6°C 34.2°F1.2°C 64% 4.7 mph NNW7.6 kmh NNW 7.6 mph12.2 kmh 30.16 in1021.3 mb 0.00 in0.0 mm 0.00 in0.0 mm 0.20 in5.1 mm
05:09 PM 45.7°F7.6°C 34.2°F1.2°C 64% 4.7 mph WNW7.6 kmh WNW 8.7 mph14.0 kmh 30.16 in1021.3 mb 0.00 in0.0 mm 0.00 in0.0 mm 0.20 in5.1 mm
05:11 PM 45.7°F7.6°C 33.8°F1.0°C 63% 4.3 mph WNW6.9 kmh WNW 9.6 mph15.4 kmh 30.17 in1021.7 mb 0.00 in0.0 mm 0.00 in0.0 mm 0.20 in5.1 mm
05:13 PM 45.7°F7.6°C 33.8°F1.0°C 63% 3.8 mph NNW6.1 kmh NNW 4.9 mph7.9 kmh 30.17 in1021.7 mb 0.00 in0.0 mm 0.00 in0.0 mm 0.20 in5.1 mm
05:15 PM 45.7°F7.6°C 33.8°F1.0°C 63% 3.1 mph WNW5.0 kmh WNW 4.0 mph6.4 kmh 30.17 in1021.7 mb 0.00 in0.0 mm 0.00 in0.0 mm 0.20 in5.1 mm
05:17 PM 45.5°F7.5°C 34.0°F1.1°C 64% 4.0 mph NW6.4 kmh NW 9.6 mph15.4 kmh 30.16 in1021.3 mb 0.00 in0.0 mm 0.00 in0.0 mm 0.20 in5.1 mm
05:19 PM 45.5°F7.5°C 34.0°F1.1°C 64% 4.0 mph WSW6.4 kmh WSW 6.9 mph11.1 kmh 30.16 in1021.3 mb 0.00 in0.0 mm 0.00 in0.0 mm 0.20 in5.1 mm
05:22 PM 45.5°F7.5°C 34.0°F1.1°C 64% 4.0 mph NW6.4 kmh NW 7.8 mph12.6 kmh 30.16 in1021.3 mb 0.00 in0.0 mm 0.00 in0.0 mm 0.20 in5.1 mm
05:24 PM 45.3°F7.4°C 34.3°F1.3°C 65% 5.1 mph NW8.2 kmh NW 9.2 mph14.8 kmh 30.16 in1021.3 mb 0.00 in0.0 mm 0.00 in0.0 mm 0.20 in5.1 mm
05:26 PM 45.3°F7.4°C 34.3°F1.3°C 65% 4.3 mph WSW6.9 kmh WSW 5.4 mph8.7 kmh 30.16 in1021.3 mb 0.00 in0.0 mm 0.00 in0.0 mm 0.20 in5.1 mm
05:28 PM 45.3°F7.4°C 34.3°F1.3°C 65% 3.8 mph WSW6.1 kmh WSW 4.9 mph7.9 kmh 30.16 in1021.3 mb 0.00 in0.0 mm 0.00 in0.0 mm 0.20 in5.1 mm
05:31 PM 45.3°F7.4°C 34.3°F1.3°C 65% 4.0 mph 6.4 kmh 8.9 mph14.3 kmh 30.16 in1021.3 mb 0.00 in0.0 mm 0.00 in0.0 mm 0.20 in5.1 mm
05:33 PM 45.1°F7.3°C 34.2°F1.2°C 65% 4.3 mph W6.9 kmh W 6.7 mph10.8 kmh 30.16 in1021.3 mb 0.00 in0.0 mm 0.00 in0.0 mm 0.20 in5.1 mm
05:35 PM 45.1°F7.3°C 34.5°F1.4°C 66% 3.8 mph WNW6.1 kmh WNW 4.7 mph7.6 kmh 30.16 in1021.3 mb 0.00 in0.0 mm 0.00 in0.0 mm 0.20 in5.1 mm
05:37 PM 45.1°F7.3°C 34.5°F1.4°C 66% 2.9 mph NW4.7 kmh NW 4.7 mph7.6 kmh 30.16 in1021.3 mb 0.00 in0.0 mm 0.00 in0.0 mm 0.20 in5.1 mm
05:40 PM 45.0°F7.2°C 34.3°F1.3°C 66% 3.8 mph WNW6.1 kmh WNW 8.1 mph13.0 kmh 30.16 in1021.3 mb 0.00 in0.0 mm 0.00 in0.0 mm 0.20 in5.1 mm
05:42 PM 45.0°F7.2°C 34.7°F1.5°C 67% 2.9 mph NNE4.7 kmh NNE 4.5 mph7.2 kmh 30.16 in1021.3 mb 0.00 in0.0 mm 0.00 in0.0 mm 0.20 in5.1 mm
05:44 PM 44.8°F7.1°C 34.5°F1.4°C 67% 3.4 mph WNW5.5 kmh WNW 5.4 mph8.7 kmh 30.16 in1021.3 mb 0.00 in0.0 mm 0.00 in0.0 mm 0.20 in5.1 mm
05:46 PM 44.8°F7.1°C 34.9°F1.6°C 68% 4.3 mph NW6.9 kmh NW 7.6 mph12.2 kmh 30.16 in1021.3 mb 0.00 in0.0 mm 0.00 in0.0 mm 0.20 in5.1 mm
05:49 PM 44.8°F7.1°C 34.9°F1.6°C 68% 5.1 mph WSW8.2 kmh WSW 11.2 mph18.0 kmh 30.16 in1021.3 mb 0.00 in0.0 mm 0.00 in0.0 mm 0.20 in5.1 mm
05:51 PM 44.8°F7.1°C 34.9°F1.6°C 68% 4.3 mph WNW6.9 kmh WNW 11.2 mph18.0 kmh 30.16 in1021.3 mb 0.00 in0.0 mm 0.00 in0.0 mm 0.20 in5.1 mm
05:53 PM 44.6°F7.0°C 34.7°F1.5°C 68% 4.3 mph NW6.9 kmh NW 5.1 mph8.2 kmh 30.17 in1021.7 mb 0.00 in0.0 mm 0.00 in0.0 mm 0.20 in5.1 mm
05:55 PM 44.6°F7.0°C 34.7°F1.5°C 68% 4.0 mph 6.4 kmh 6.3 mph10.1 kmh 30.16 in1021.3 mb 0.00 in0.0 mm 0.00 in0.0 mm 0.20 in5.1 mm
05:57 PM 44.4°F6.9°C 34.9°F1.6°C 69% 4.5 mph WNW7.2 kmh WNW 6.9 mph11.1 kmh 30.17 in1021.7 mb 0.00 in0.0 mm 0.00 in0.0 mm 0.20 in5.1 mm
05:59 PM 44.6°F7.0°C 35.1°F1.7°C 69% 5.1 mph NNW8.2 kmh NNW 9.2 mph14.8 kmh 30.16 in1021.3 mb 0.00 in0.0 mm 0.00 in0.0 mm 0.20 in5.1 mm
06:01 PM 44.4°F6.9°C 34.9°F1.6°C 69% 5.1 mph WNW8.2 kmh WNW 10.1 mph16.3 kmh 30.16 in1021.3 mb 0.00 in0.0 mm 0.00 in0.0 mm 0.20 in5.1 mm
06:03 PM 44.4°F6.9°C 34.9°F1.6°C 69% 3.8 mph WNW6.1 kmh WNW 3.4 mph5.5 kmh 30.16 in1021.3 mb 0.00 in0.0 mm 0.00 in0.0 mm 0.20 in5.1 mm
06:06 PM 44.4°F6.9°C 34.9°F1.6°C 69% 3.1 mph WNW5.0 kmh WNW 5.4 mph8.7 kmh 30.16 in1021.3 mb 0.00 in0.0 mm 0.00 in0.0 mm 0.20 in5.1 mm
06:08 PM 44.4°F6.9°C 34.9°F1.6°C 69% 3.1 mph WNW5.0 kmh WNW 4.7 mph7.6 kmh 30.16 in1021.3 mb 0.00 in0.0 mm 0.00 in0.0 mm 0.20 in5.1 mm
06:10 PM 44.4°F6.9°C 34.9°F1.6°C 69% 2.5 mph 4.0 kmh 2.5 mph4.0 kmh 30.16 in1021.3 mb 0.00 in0.0 mm 0.00 in0.0 mm 0.20 in5.1 mm
06:12 PM 44.4°F6.9°C 34.9°F1.6°C 69% 2.5 mph NW4.0 kmh NW 3.6 mph5.8 kmh 30.16 in1021.3 mb 0.00 in0.0 mm 0.00 in0.0 mm 0.20 in5.1 mm
06:14 PM 44.4°F6.9°C 34.9°F1.6°C 69% 2.7 mph NW4.3 kmh NW 4.7 mph7.6 kmh 30.16 in1021.3 mb 0.00 in0.0 mm 0.00 in0.0 mm 0.20 in5.1 mm
06:17 PM 44.4°F6.9°C 34.9°F1.6°C 69% 2.7 mph W4.3 kmh W 3.6 mph5.8 kmh 30.16 in1021.3 mb 0.00 in0.0 mm 0.00 in0.0 mm 0.20 in5.1 mm
06:19 PM 44.4°F6.9°C 35.2°F1.8°C 70% 2.7 mph WNW4.3 kmh WNW 3.8 mph6.1 kmh 30.16 in1021.3 mb 0.00 in0.0 mm 0.00 in0.0 mm 0.20 in5.1 mm
06:21 PM 44.4°F6.9°C 35.2°F1.8°C 70% 2.0 mph W3.2 kmh W 2.9 mph4.7 kmh 30.16 in1021.3 mb 0.00 in0.0 mm 0.00 in0.0 mm 0.20 in5.1 mm
06:23 PM 44.4°F6.9°C 35.2°F1.8°C 70% 2.0 mph SSW3.2 kmh SSW 3.6 mph5.8 kmh 30.16 in1021.3 mb 0.00 in0.0 mm 0.00 in0.0 mm 0.20 in5.1 mm
06:25 PM 44.4°F6.9°C 35.2°F1.8°C 70% 2.2 mph W3.5 kmh W 3.8 mph6.1 kmh 30.16 in1021.3 mb 0.00 in0.0 mm 0.00 in0.0 mm 0.20 in5.1 mm
06:28 PM 44.4°F6.9°C 35.2°F1.8°C 70% 2.5 mph 4.0 kmh 4.0 mph6.4 kmh 30.16 in1021.3 mb 0.00 in0.0 mm 0.00 in0.0 mm 0.20 in5.1 mm
06:30 PM 44.4°F6.9°C 35.2°F1.8°C 70% 2.2 mph NW3.5 kmh NW 2.5 mph4.0 kmh 30.17 in1021.7 mb 0.00 in0.0 mm 0.00 in0.0 mm 0.20 in5.1 mm
06:32 PM 44.4°F6.9°C 35.2°F1.8°C 70% 2.0 mph NNW3.2 kmh NNW 2.7 mph4.3 kmh 30.17 in1021.7 mb 0.00 in0.0 mm 0.00 in0.0 mm 0.20 in5.1 mm
06:34 PM 44.4°F6.9°C 35.2°F1.8°C 70% 1.6 mph NNW2.6 kmh NNW 2.7 mph4.3 kmh 30.17 in1021.7 mb 0.00 in0.0 mm 0.00 in0.0 mm 0.20 in5.1 mm
06:36 PM 44.4°F6.9°C 35.2°F1.8°C 70% 2.0 mph W3.2 kmh W 4.5 mph7.2 kmh 30.17 in1021.7 mb 0.00 in0.0 mm 0.00 in0.0 mm 0.20 in5.1 mm
06:38 PM 44.4°F6.9°C 35.6°F2.0°C 71% 2.0 mph SW3.2 kmh SW 3.4 mph5.5 kmh 30.17 in1021.7 mb 0.00 in0.0 mm 0.00 in0.0 mm 0.20 in5.1 mm
06:41 PM 44.4°F6.9°C 35.6°F2.0°C 71% 1.6 mph WNW2.6 kmh WNW 2.2 mph3.5 kmh 30.17 in1021.7 mb 0.00 in0.0 mm 0.00 in0.0 mm 0.20 in5.1 mm
06:43 PM 44.4°F6.9°C 35.6°F2.0°C 71% 2.0 mph NW3.2 kmh NW 6.7 mph10.8 kmh 30.17 in1021.7 mb 0.00 in0.0 mm 0.00 in0.0 mm 0.20 in5.1 mm
06:45 PM 44.4°F6.9°C 36.0°F2.2°C 72% 2.2 mph NW3.5 kmh NW 3.6 mph5.8 kmh 30.17 in1021.7 mb 0.00 in0.0 mm 0.00 in0.0 mm 0.20 in5.1 mm
06:47 PM 44.4°F6.9°C 36.0°F2.2°C 72% 2.5 mph NW4.0 kmh NW 4.0 mph6.4 kmh 30.17 in1021.7 mb 0.00 in0.0 mm 0.00 in0.0 mm 0.20 in5.1 mm
06:49 PM 44.4°F6.9°C 36.0°F2.2°C 72% 2.5 mph WSW4.0 kmh WSW 4.3 mph6.9 kmh 30.17 in1021.7 mb 0.00 in0.0 mm 0.00 in0.0 mm 0.20 in5.1 mm
06:51 PM 44.6°F7.0°C 36.1°F2.3°C 72% 3.4 mph W5.5 kmh W 5.8 mph9.3 kmh 30.17 in1021.7 mb 0.00 in0.0 mm 0.00 in0.0 mm 0.20 in5.1 mm
06:54 PM 44.6°F7.0°C 36.1°F2.3°C 72% 3.1 mph 5.0 kmh 4.5 mph7.2 kmh 30.17 in1021.7 mb 0.00 in0.0 mm 0.00 in0.0 mm 0.20 in5.1 mm
06:56 PM 44.6°F7.0°C 36.5°F2.5°C 73% 2.7 mph W4.3 kmh W 4.3 mph6.9 kmh 30.17 in1021.7 mb 0.00 in0.0 mm 0.00 in0.0 mm 0.20 in5.1 mm
06:58 PM 44.8°F7.1°C 36.7°F2.6°C 73% 2.2 mph W3.5 kmh W 3.6 mph5.8 kmh 30.17 in1021.7 mb 0.00 in0.0 mm 0.00 in0.0 mm 0.20 in5.1 mm
07:00 PM 44.8°F7.1°C 36.7°F2.6°C 73% 1.6 mph WNW2.6 kmh WNW 2.2 mph3.5 kmh 30.17 in1021.7 mb 0.00 in0.0 mm 0.00 in0.0 mm 0.20 in5.1 mm
07:02 PM 44.6°F7.0°C 36.5°F2.5°C 73% 2.2 mph 3.5 kmh 4.7 mph7.6 kmh 30.17 in1021.7 mb 0.00 in0.0 mm 0.00 in0.0 mm 0.20 in5.1 mm
07:05 PM 44.8°F7.1°C 36.7°F2.6°C 73% 2.2 mph W3.5 kmh W 4.7 mph7.6 kmh 30.17 in1021.7 mb 0.00 in0.0 mm 0.00 in0.0 mm 0.20 in5.1 mm
07:07 PM 44.6°F7.0°C 36.5°F2.5°C 73% 2.7 mph WSW4.3 kmh WSW 5.4 mph8.7 kmh 30.17 in1021.7 mb 0.00 in0.0 mm 0.00 in0.0 mm 0.20 in5.1 mm
07:09 PM 44.8°F7.1°C 37.0°F2.8°C 74% 2.2 mph NNW3.5 kmh NNW 3.1 mph5.0 kmh 30.17 in1021.7 mb 0.00 in0.0 mm 0.00 in0.0 mm 0.20 in5.1 mm
07:11 PM 44.8°F7.1°C 37.0°F2.8°C 74% 2.9 mph NNW4.7 kmh NNW 6.5 mph10.5 kmh 30.17 in1021.7 mb 0.00 in0.0 mm 0.00 in0.0 mm 0.20 in5.1 mm
07:13 PM 44.8°F7.1°C 37.4°F3.0°C 75% 2.9 mph NNW4.7 kmh NNW 7.6 mph12.2 kmh 30.17 in1021.7 mb 0.00 in0.0 mm 0.00 in0.0 mm 0.20 in5.1 mm
07:15 PM 44.8°F7.1°C 37.4°F3.0°C 75% 2.2 mph W3.5 kmh W 3.6 mph5.8 kmh 30.17 in1021.7 mb 0.00 in0.0 mm 0.00 in0.0 mm 0.20 in5.1 mm
07:17 PM 44.8°F7.1°C 37.4°F3.0°C 75% 2.2 mph WSW3.5 kmh WSW 4.5 mph7.2 kmh 30.17 in1021.7 mb 0.00 in0.0 mm 0.00 in0.0 mm 0.20 in5.1 mm
07:19 PM 44.8°F7.1°C 37.4°F3.0°C 75% 1.8 mph W2.9 kmh W 4.5 mph7.2 kmh 30.17 in1021.7 mb 0.00 in0.0 mm 0.00 in0.0 mm 0.20 in5.1 mm
07:22 PM 44.6°F7.0°C 37.2°F2.9°C 75% 2.2 mph WSW3.5 kmh WSW 6.3 mph10.1 kmh 30.18 in1022.0 mb 0.00 in0.0 mm 0.00 in0.0 mm 0.20 in5.1 mm
07:24 PM 44.8°F7.1°C 37.8°F3.2°C 76% 2.9 mph NNW4.7 kmh NNW 4.5 mph7.2 kmh 30.17 in1021.7 mb 0.00 in0.0 mm 0.00 in0.0 mm 0.20 in5.1 mm
07:26 PM 44.8°F7.1°C 37.8°F3.2°C 76% 2.9 mph W4.7 kmh W 6.3 mph10.1 kmh 30.17 in1021.7 mb 0.00 in0.0 mm 0.00 in0.0 mm 0.20 in5.1 mm
07:29 PM 44.8°F7.1°C 37.8°F3.2°C 76% 2.0 mph NW3.2 kmh NW 4.5 mph7.2 kmh 30.17 in1021.7 mb 0.00 in0.0 mm 0.00 in0.0 mm 0.20 in5.1 mm
07:31 PM 45.0°F7.2°C 38.1°F3.4°C 77% 2.7 mph W4.3 kmh W 5.1 mph8.2 kmh 30.18 in1022.0 mb 0.00 in0.0 mm 0.00 in0.0 mm 0.20 in5.1 mm
07:33 PM 45.0°F7.2°C 38.1°F3.4°C 77% 2.9 mph NNW4.7 kmh NNW 4.3 mph6.9 kmh 30.17 in1021.7 mb 0.00 in0.0 mm 0.00 in0.0 mm 0.20 in5.1 mm
07:35 PM 45.0°F7.2°C 38.1°F3.4°C 77% 2.9 mph NW4.7 kmh NW 8.1 mph13.0 kmh 30.17 in1021.7 mb 0.00 in0.0 mm 0.00 in0.0 mm 0.20 in5.1 mm
07:37 PM 45.0°F7.2°C 38.1°F3.4°C 77% 2.0 mph WSW3.2 kmh WSW 3.8 mph6.1 kmh 30.18 in1022.0 mb 0.00 in0.0 mm 0.00 in0.0 mm 0.20 in5.1 mm
07:40 PM 45.0°F7.2°C 38.1°F3.4°C 77% 2.2 mph NW3.5 kmh NW 6.5 mph10.5 kmh 30.17 in1021.7 mb 0.00 in0.0 mm 0.00 in0.0 mm 0.20 in5.1 mm
07:42 PM 45.0°F7.2°C 38.1°F3.4°C 77% 2.2 mph WNW3.5 kmh WNW 4.0 mph6.4 kmh 30.17 in1021.7 mb 0.00 in0.0 mm 0.00 in0.0 mm 0.20 in5.1 mm
07:44 PM 45.0°F7.2°C 38.1°F3.4°C 77% 2.0 mph W3.2 kmh W 3.6 mph5.8 kmh 30.17 in1021.7 mb 0.00 in0.0 mm 0.00 in0.0 mm 0.20 in5.1 mm
07:46 PM 45.0°F7.2°C 38.1°F3.4°C 77% 1.8 mph WSW2.9 kmh WSW 2.9 mph4.7 kmh 30.17 in1021.7 mb 0.00 in0.0 mm 0.00 in0.0 mm 0.20 in5.1 mm
07:48 PM 45.0°F7.2°C 38.5°F3.6°C 78% 2.7 mph NNW4.3 kmh NNW 6.3 mph10.1 kmh 30.17 in1021.7 mb 0.00 in0.0 mm 0.00 in0.0 mm 0.20 in5.1 mm
07:50 PM 45.1°F7.3°C 38.7°F3.7°C 78% 3.4 mph W5.5 kmh W 6.9 mph11.1 kmh 30.17 in1021.7 mb 0.00 in0.0 mm 0.00 in0.0 mm 0.20 in5.1 mm
07:53 PM 45.1°F7.3°C 38.7°F3.7°C 78% 2.5 mph WNW4.0 kmh WNW 4.7 mph7.6 kmh 30.17 in1021.7 mb 0.00 in0.0 mm 0.00 in0.0 mm 0.20 in5.1 mm
07:55 PM 45.1°F7.3°C 38.7°F3.7°C 78% 1.8 mph NNW2.9 kmh NNW 3.1 mph5.0 kmh 30.18 in1022.0 mb 0.00 in0.0 mm 0.00 in0.0 mm 0.20 in5.1 mm
07:57 PM 45.1°F7.3°C 38.7°F3.7°C 78% 1.3 mph WNW2.1 kmh WNW 3.1 mph5.0 kmh 30.18 in1022.0 mb 0.00 in0.0 mm 0.00 in0.0 mm 0.20 in5.1 mm
07:59 PM 45.1°F7.3°C 38.7°F3.7°C 78% 1.6 mph WSW2.6 kmh WSW 4.3 mph6.9 kmh 30.18 in1022.0 mb 0.00 in0.0 mm 0.00 in0.0 mm 0.20 in5.1 mm
08:01 PM 45.1°F7.3°C 38.7°F3.7°C 78% 1.8 mph W2.9 kmh W 2.9 mph4.7 kmh 30.17 in1021.7 mb 0.00 in0.0 mm 0.00 in0.0 mm 0.20 in5.1 mm
08:04 PM 45.1°F7.3°C 38.7°F3.7°C 78% 2.0 mph NNE3.2 kmh NNE 3.1 mph5.0 kmh 30.17 in1021.7 mb 0.00 in0.0 mm 0.00 in0.0 mm 0.20 in5.1 mm
08:06 PM 45.1°F7.3°C 38.7°F3.7°C 78% 1.8 mph WSW2.9 kmh WSW 3.8 mph6.1 kmh 30.17 in1021.7 mb 0.00 in0.0 mm 0.00 in0.0 mm 0.20 in5.1 mm
08:08 PM 45.1°F7.3°C 39.0°F3.9°C 79% 2.0 mph NNW3.2 kmh NNW 2.5 mph4.0 kmh 30.17 in1021.7 mb 0.00 in0.0 mm 0.00 in0.0 mm 0.20 in5.1 mm
08:10 PM 45.1°F7.3°C 39.0°F3.9°C 79% 1.6 mph 2.6 kmh 3.1 mph5.0 kmh 30.17 in1021.7 mb 0.00 in0.0 mm 0.00 in0.0 mm 0.20 in5.1 mm
08:12 PM 45.1°F7.3°C 39.0°F3.9°C 79% 2.2 mph WNW3.5 kmh WNW 8.1 mph13.0 kmh 30.17 in1021.7 mb 0.00 in0.0 mm 0.00 in0.0 mm 0.20 in5.1 mm
08:14 PM 45.1°F7.3°C 39.0°F3.9°C 79% 2.7 mph WNW4.3 kmh WNW 5.4 mph8.7 kmh 30.17 in1021.7 mb 0.00 in0.0 mm 0.00 in0.0 mm 0.20 in5.1 mm
08:17 PM 45.1°F7.3°C 39.0°F3.9°C 79% 2.9 mph W4.7 kmh W 5.1 mph8.2 kmh 30.17 in1021.7 mb 0.00 in0.0 mm 0.00 in0.0 mm 0.20 in5.1 mm
08:19 PM 45.1°F7.3°C 39.0°F3.9°C 79% 2.7 mph WNW4.3 kmh WNW 4.5 mph7.2 kmh 30.17 in1021.7 mb 0.00 in0.0 mm 0.00 in0.0 mm 0.20 in5.1 mm
08:21 PM 45.3°F7.4°C 39.2°F4.0°C 79% 3.6 mph W5.8 kmh W 8.7 mph14.0 kmh 30.17 in1021.7 mb 0.00 in0.0 mm 0.00 in0.0 mm 0.20 in5.1 mm
08:23 PM 45.3°F7.4°C 39.2°F4.0°C 79% 2.2 mph W3.5 kmh W 2.7 mph4.3 kmh 30.17 in1021.7 mb 0.00 in0.0 mm 0.00 in0.0 mm 0.20 in5.1 mm
08:25 PM 45.3°F7.4°C 39.2°F4.0°C 79% 2.2 mph 3.5 kmh 3.4 mph5.5 kmh 30.17 in1021.7 mb 0.00 in0.0 mm 0.00 in0.0 mm 0.20 in5.1 mm
08:28 PM 45.3°F7.4°C 39.2°F4.0°C 79% 3.8 mph W6.1 kmh W 9.2 mph14.8 kmh 30.17 in1021.7 mb 0.00 in0.0 mm 0.00 in0.0 mm 0.20 in5.1 mm
08:30 PM 45.5°F7.5°C 39.4°F4.1°C 79% 4.0 mph WNW6.4 kmh WNW 8.9 mph14.3 kmh 30.17 in1021.7 mb 0.00 in0.0 mm 0.00 in0.0 mm 0.20 in5.1 mm
08:32 PM 45.5°F7.5°C 39.4°F4.1°C 79% 2.9 mph NNW4.7 kmh NNW 5.8 mph9.3 kmh 30.17 in1021.7 mb 0.00 in0.0 mm 0.00 in0.0 mm 0.20 in5.1 mm
08:34 PM 45.5°F7.5°C 39.4°F4.1°C 79% 3.8 mph WNW6.1 kmh WNW 8.9 mph14.3 kmh 30.17 in1021.7 mb 0.00 in0.0 mm 0.00 in0.0 mm 0.20 in5.1 mm
08:36 PM 45.5°F7.5°C 39.4°F4.1°C 79% 2.5 mph NNW4.0 kmh NNW 4.5 mph7.2 kmh 30.17 in1021.7 mb 0.00 in0.0 mm 0.00 in0.0 mm 0.20 in5.1 mm
08:39 PM 45.5°F7.5°C 39.4°F4.1°C 79% 2.5 mph W4.0 kmh W 6.5 mph10.5 kmh 30.17 in1021.7 mb 0.00 in0.0 mm 0.00 in0.0 mm 0.20 in5.1 mm
08:41 PM 45.5°F7.5°C 39.4°F4.1°C 79% 2.0 mph NNW3.2 kmh NNW 3.8 mph6.1 kmh 30.17 in1021.7 mb 0.00 in0.0 mm 0.00 in0.0 mm 0.20 in5.1 mm
08:43 PM 45.5°F7.5°C 39.4°F4.1°C 79% 3.1 mph WNW5.0 kmh WNW 7.6 mph12.2 kmh 30.17 in1021.7 mb 0.00 in0.0 mm 0.00 in0.0 mm 0.20 in5.1 mm
08:45 PM 45.5°F7.5°C 39.4°F4.1°C 79% 3.1 mph NW5.0 kmh NW 6.3 mph10.1 kmh 30.17 in1021.7 mb 0.00 in0.0 mm 0.00 in0.0 mm 0.20 in5.1 mm
08:47 PM 45.5°F7.5°C 39.4°F4.1°C 79% 3.4 mph WSW5.5 kmh WSW 8.1 mph13.0 kmh 30.17 in1021.7 mb 0.00 in0.0 mm 0.00 in0.0 mm 0.20 in5.1 mm
08:50 PM 45.5°F7.5°C 39.4°F4.1°C 79% 3.4 mph NW5.5 kmh NW 8.1 mph13.0 kmh 30.17 in1021.7 mb 0.00 in0.0 mm 0.00 in0.0 mm 0.20 in5.1 mm
08:52 PM 45.7°F7.6°C 39.6°F4.2°C 79% 5.6 mph W9.0 kmh W 11.2 mph18.0 kmh 30.17 in1021.7 mb 0.00 in0.0 mm 0.00 in0.0 mm 0.20 in5.1 mm
08:54 PM 45.7°F7.6°C 39.6°F4.2°C 79% 4.5 mph WNW7.2 kmh WNW 7.6 mph12.2 kmh 30.17 in1021.7 mb 0.00 in0.0 mm 0.00 in0.0 mm 0.20 in5.1 mm
08:56 PM 45.7°F7.6°C 39.6°F4.2°C 79% 3.6 mph NW5.8 kmh NW 8.9 mph14.3 kmh 30.17 in1021.7 mb 0.00 in0.0 mm 0.00 in0.0 mm 0.20 in5.1 mm
08:59 PM 45.7°F7.6°C 39.6°F4.2°C 79% 3.1 mph 5.0 kmh 4.3 mph6.9 kmh 30.16 in1021.3 mb 0.00 in0.0 mm 0.00 in0.0 mm 0.20 in5.1 mm
09:01 PM 45.7°F7.6°C 39.6°F4.2°C 79% 3.1 mph W5.0 kmh W 8.9 mph14.3 kmh 30.17 in1021.7 mb 0.00 in0.0 mm 0.00 in0.0 mm 0.20 in5.1 mm
09:03 PM 45.7°F7.6°C 39.6°F4.2°C 79% 4.0 mph W6.4 kmh W 10.5 mph16.9 kmh 30.16 in1021.3 mb 0.00 in0.0 mm 0.00 in0.0 mm 0.20 in5.1 mm
09:05 PM 45.7°F7.6°C 39.6°F4.2°C 79% 4.0 mph NW6.4 kmh NW 8.1 mph13.0 kmh 30.17 in1021.7 mb 0.00 in0.0 mm 0.00 in0.0 mm 0.20 in5.1 mm
09:07 PM 45.7°F7.6°C 39.6°F4.2°C 79% 3.4 mph WSW5.5 kmh WSW 4.9 mph7.9 kmh 30.17 in1021.7 mb 0.00 in0.0 mm 0.00 in0.0 mm 0.20 in5.1 mm
09:10 PM 45.7°F7.6°C 39.6°F4.2°C 79% 3.6 mph WSW5.8 kmh WSW 7.4 mph11.9 kmh 30.17 in1021.7 mb 0.00 in0.0 mm 0.00 in0.0 mm 0.20 in5.1 mm
09:12 PM 45.7°F7.6°C 39.6°F4.2°C 79% 5.4 mph ENE8.7 kmh ENE 10.3 mph16.6 kmh 30.17 in1021.7 mb 0.00 in0.0 mm 0.00 in0.0 mm 0.20 in5.1 mm
09:14 PM 45.7°F7.6°C 39.6°F4.2°C 79% 5.4 mph SSW8.7 kmh SSW 6.3 mph10.1 kmh 30.17 in1021.7 mb 0.00 in0.0 mm 0.00 in0.0 mm 0.20 in5.1 mm
09:16 PM 45.7°F7.6°C 39.6°F4.2°C 79% 4.0 mph WNW6.4 kmh WNW 6.0 mph9.7 kmh 30.17 in1021.7 mb 0.00 in0.0 mm 0.00 in0.0 mm 0.20 in5.1 mm
09:18 PM 45.7°F7.6°C 39.6°F4.2°C 79% 4.3 mph NW6.9 kmh NW 6.9 mph11.1 kmh 30.17 in1021.7 mb 0.00 in0.0 mm 0.00 in0.0 mm 0.20 in5.1 mm
09:20 PM 45.7°F7.6°C 39.6°F4.2°C 79% 3.8 mph SSW6.1 kmh SSW 9.4 mph15.1 kmh 30.16 in1021.3 mb 0.00 in0.0 mm 0.00 in0.0 mm 0.20 in5.1 mm
09:23 PM 45.7°F7.6°C 39.6°F4.2°C 79% 4.0 mph 6.4 kmh 12.5 mph20.1 kmh 30.17 in1021.7 mb 0.00 in0.0 mm 0.00 in0.0 mm 0.20 in5.1 mm
09:25 PM 45.7°F7.6°C 39.6°F4.2°C 79% 4.5 mph W7.2 kmh W 7.6 mph12.2 kmh 30.17 in1021.7 mb 0.00 in0.0 mm 0.00 in0.0 mm 0.20 in5.1 mm
09:27 PM 45.7°F7.6°C 39.6°F4.2°C 79% 4.5 mph NW7.2 kmh NW 6.3 mph10.1 kmh 30.17 in1021.7 mb 0.00 in0.0 mm 0.00 in0.0 mm 0.20 in5.1 mm
09:29 PM 45.7°F7.6°C 39.6°F4.2°C 79% 4.5 mph W7.2 kmh W 6.0 mph9.7 kmh 30.16 in1021.3 mb 0.00 in0.0 mm 0.00 in0.0 mm 0.20 in5.1 mm
09:31 PM 45.7°F7.6°C 39.6°F4.2°C 79% 3.4 mph SW5.5 kmh SW 6.0 mph9.7 kmh 30.16 in1021.3 mb 0.00 in0.0 mm 0.00 in0.0 mm 0.20 in5.1 mm
09:33 PM 45.7°F7.6°C 39.6°F4.2°C 79% 3.8 mph W6.1 kmh W 7.4 mph11.9 kmh 30.16 in1021.3 mb 0.00 in0.0 mm 0.00 in0.0 mm 0.20 in5.1 mm
09:36 PM 45.7°F7.6°C 39.6°F4.2°C 79% 4.0 mph NW6.4 kmh NW 8.1 mph13.0 kmh 30.16 in1021.3 mb 0.00 in0.0 mm 0.00 in0.0 mm 0.20 in5.1 mm
09:38 PM 45.9°F7.7°C 39.7°F4.3°C 79% 4.5 mph W7.2 kmh W 7.6 mph12.2 kmh 30.16 in1021.3 mb 0.00 in0.0 mm 0.00 in0.0 mm 0.20 in5.1 mm
09:40 PM 46.0°F7.8°C 39.9°F4.4°C 79% 4.0 mph WSW6.4 kmh WSW 5.4 mph8.7 kmh 30.16 in1021.3 mb 0.00 in0.0 mm 0.00 in0.0 mm 0.20 in5.1 mm
09:42 PM 46.0°F7.8°C 39.9°F4.4°C 79% 4.0 mph WNW6.4 kmh WNW 5.4 mph8.7 kmh 30.16 in1021.3 mb 0.00 in0.0 mm 0.00 in0.0 mm 0.20 in5.1 mm
09:44 PM 46.0°F7.8°C 39.9°F4.4°C 79% 3.4 mph 5.5 kmh 7.4 mph11.9 kmh 30.16 in1021.3 mb 0.00 in0.0 mm 0.00 in0.0 mm 0.20 in5.1 mm
09:47 PM 46.0°F7.8°C 39.9°F4.4°C 79% 3.8 mph NNW6.1 kmh NNW 6.3 mph10.1 kmh 30.16 in1021.3 mb 0.00 in0.0 mm 0.00 in0.0 mm 0.20 in5.1 mm
09:49 PM 46.0°F7.8°C 39.6°F4.2°C 78% 4.3 mph NW6.9 kmh NW 6.5 mph10.5 kmh 30.15 in1021.0 mb 0.00 in0.0 mm 0.00 in0.0 mm 0.20 in5.1 mm
09:51 PM 46.2°F7.9°C 39.7°F4.3°C 78% 3.4 mph NW5.5 kmh NW 4.3 mph6.9 kmh 30.15 in1021.0 mb 0.00 in0.0 mm 0.00 in0.0 mm 0.20 in5.1 mm
09:53 PM 46.2°F7.9°C 39.7°F4.3°C 78% 3.8 mph W6.1 kmh W 6.9 mph11.1 kmh 30.15 in1021.0 mb 0.00 in0.0 mm 0.00 in0.0 mm 0.20 in5.1 mm
09:55 PM 46.2°F7.9°C 39.7°F4.3°C 78% 3.8 mph NE6.1 kmh NE 8.5 mph13.7 kmh 30.15 in1021.0 mb 0.00 in0.0 mm 0.00 in0.0 mm 0.20 in5.1 mm
09:57 PM 46.2°F7.9°C 39.7°F4.3°C 78% 3.8 mph NW6.1 kmh NW 5.6 mph9.0 kmh 30.15 in1021.0 mb 0.00 in0.0 mm 0.00 in0.0 mm 0.20 in5.1 mm
09:59 PM 46.2°F7.9°C 39.7°F4.3°C 78% 3.8 mph WSW6.1 kmh WSW 5.4 mph8.7 kmh 30.15 in1021.0 mb 0.00 in0.0 mm 0.00 in0.0 mm 0.20 in5.1 mm
10:02 PM 46.2°F7.9°C 39.7°F4.3°C 78% 3.4 mph ENE5.5 kmh ENE 6.0 mph9.7 kmh 30.15 in1021.0 mb 0.00 in0.0 mm 0.00 in0.0 mm 0.20 in5.1 mm
10:04 PM 46.2°F7.9°C 39.7°F4.3°C 78% 4.3 mph WNW6.9 kmh WNW 7.2 mph11.6 kmh 30.15 in1021.0 mb 0.00 in0.0 mm 0.00 in0.0 mm 0.20 in5.1 mm
10:06 PM 46.2°F7.9°C 39.7°F4.3°C 78% 3.6 mph NNW5.8 kmh NNW 4.9 mph7.9 kmh 30.15 in1021.0 mb 0.00 in0.0 mm 0.00 in0.0 mm 0.20 in5.1 mm
10:08 PM 46.2°F7.9°C 39.7°F4.3°C 78% 4.0 mph 6.4 kmh 7.6 mph12.2 kmh 30.15 in1021.0 mb 0.00 in0.0 mm 0.00 in0.0 mm 0.20 in5.1 mm
10:11 PM 46.2°F7.9°C 39.7°F4.3°C 78% 4.3 mph 6.9 kmh 8.3 mph13.4 kmh 30.15 in1021.0 mb 0.00 in0.0 mm 0.00 in0.0 mm 0.20 in5.1 mm
10:13 PM 46.2°F7.9°C 39.7°F4.3°C 78% 4.7 mph W7.6 kmh W 10.7 mph17.2 kmh 30.15 in1021.0 mb 0.00 in0.0 mm 0.00 in0.0 mm 0.20 in5.1 mm
10:15 PM 46.2°F7.9°C 39.7°F4.3°C 78% 4.3 mph E6.9 kmh E 5.1 mph8.2 kmh 30.15 in1021.0 mb 0.00 in0.0 mm 0.00 in0.0 mm 0.20 in5.1 mm
10:18 PM 46.2°F7.9°C 39.7°F4.3°C 78% 4.7 mph SSE7.6 kmh SSE 9.8 mph15.8 kmh 30.15 in1021.0 mb 0.00 in0.0 mm 0.00 in0.0 mm 0.20 in5.1 mm
10:20 PM 46.2°F7.9°C 39.7°F4.3°C 78% 5.1 mph WSW8.2 kmh WSW 11.4 mph18.3 kmh 30.15 in1021.0 mb 0.00 in0.0 mm 0.00 in0.0 mm 0.20 in5.1 mm
10:22 PM 46.6°F8.1°C 40.1°F4.5°C 78% 4.0 mph SSE6.4 kmh SSE 6.5 mph10.5 kmh 30.15 in1021.0 mb 0.00 in0.0 mm 0.00 in0.0 mm 0.20 in5.1 mm
10:24 PM 46.4°F8.0°C 39.9°F4.4°C 78% 4.5 mph W7.2 kmh W 8.1 mph13.0 kmh 30.15 in1021.0 mb 0.00 in0.0 mm 0.00 in0.0 mm 0.20 in5.1 mm
10:26 PM 46.6°F8.1°C 40.1°F4.5°C 78% 4.5 mph WSW7.2 kmh WSW 11.9 mph19.2 kmh 30.14 in1020.7 mb 0.00 in0.0 mm 0.00 in0.0 mm 0.20 in5.1 mm
10:28 PM 46.6°F8.1°C 40.1°F4.5°C 78% 3.6 mph W5.8 kmh W 5.8 mph9.3 kmh 30.14 in1020.7 mb 0.00 in0.0 mm 0.00 in0.0 mm 0.20 in5.1 mm
10:31 PM 46.6°F8.1°C 40.5°F4.7°C 79% 3.6 mph W5.8 kmh W 5.8 mph9.3 kmh 30.14 in1020.7 mb 0.00 in0.0 mm 0.00 in0.0 mm 0.20 in5.1 mm
10:33 PM 46.6°F8.1°C 40.5°F4.7°C 79% 3.6 mph WSW5.8 kmh WSW 5.6 mph9.0 kmh 30.15 in1021.0 mb 0.00 in0.0 mm 0.00 in0.0 mm 0.20 in5.1 mm
10:35 PM 46.6°F8.1°C 40.5°F4.7°C 79% 3.1 mph NE5.0 kmh NE 4.0 mph6.4 kmh 30.15 in1021.0 mb 0.00 in0.0 mm 0.00 in0.0 mm 0.20 in5.1 mm
10:37 PM 46.6°F8.1°C 40.5°F4.7°C 79% 3.6 mph S5.8 kmh S 9.6 mph15.4 kmh 30.15 in1021.0 mb 0.00 in0.0 mm 0.00 in0.0 mm 0.20 in5.1 mm
10:40 PM 46.6°F8.1°C 40.5°F4.7°C 79% 3.4 mph W5.5 kmh W 5.4 mph8.7 kmh 30.15 in1021.0 mb 0.00 in0.0 mm 0.00 in0.0 mm 0.20 in5.1 mm
10:42 PM 46.6°F8.1°C 40.5°F4.7°C 79% 3.8 mph WSW6.1 kmh WSW 7.8 mph12.6 kmh 30.15 in1021.0 mb 0.00 in0.0 mm 0.00 in0.0 mm 0.20 in5.1 mm
10:44 PM 46.6°F8.1°C 40.5°F4.7°C 79% 4.0 mph SSE6.4 kmh SSE 7.2 mph11.6 kmh 30.15 in1021.0 mb 0.00 in0.0 mm 0.00 in0.0 mm 0.20 in5.1 mm
10:47 PM 46.6°F8.1°C 40.1°F4.5°C 78% 4.0 mph SW6.4 kmh SW 6.5 mph10.5 kmh 30.15 in1021.0 mb 0.00 in0.0 mm 0.00 in0.0 mm 0.20 in5.1 mm
10:49 PM 46.8°F8.2°C 40.3°F4.6°C 78% 4.0 mph SSW6.4 kmh SSW 7.2 mph11.6 kmh 30.15 in1021.0 mb 0.00 in0.0 mm 0.00 in0.0 mm 0.20 in5.1 mm
10:51 PM 46.8°F8.2°C 40.3°F4.6°C 78% 3.6 mph WNW5.8 kmh WNW 4.7 mph7.6 kmh 30.15 in1021.0 mb 0.00 in0.0 mm 0.00 in0.0 mm 0.20 in5.1 mm
10:53 PM 46.8°F8.2°C 40.3°F4.6°C 78% 4.3 mph W6.9 kmh W 7.8 mph12.6 kmh 30.15 in1021.0 mb 0.00 in0.0 mm 0.00 in0.0 mm 0.20 in5.1 mm
10:55 PM 46.9°F8.3°C 40.5°F4.7°C 78% 4.5 mph WSW7.2 kmh WSW 9.2 mph14.8 kmh 30.15 in1021.0 mb 0.00 in0.0 mm 0.00 in0.0 mm 0.20 in5.1 mm
10:58 PM 46.9°F8.3°C 40.5°F4.7°C 78% 5.4 mph WSW8.7 kmh WSW 9.4 mph15.1 kmh 30.15 in1021.0 mb 0.00 in0.0 mm 0.00 in0.0 mm 0.20 in5.1 mm
11:00 PM 46.9°F8.3°C 40.5°F4.7°C 78% 4.7 mph NW7.6 kmh NW 9.6 mph15.4 kmh 30.15 in1021.0 mb 0.00 in0.0 mm 0.00 in0.0 mm 0.20 in5.1 mm
11:02 PM 46.9°F8.3°C 40.5°F4.7°C 78% 4.5 mph WSW7.2 kmh WSW 9.2 mph14.8 kmh 30.14 in1020.7 mb 0.00 in0.0 mm 0.00 in0.0 mm 0.20 in5.1 mm
11:04 PM 46.9°F8.3°C 40.5°F4.7°C 78% 4.0 mph SSW6.4 kmh SSW 6.5 mph10.5 kmh 30.14 in1020.7 mb 0.00 in0.0 mm 0.00 in0.0 mm 0.20 in5.1 mm
11:07 PM 47.1°F8.4°C 40.6°F4.8°C 78% 2.5 mph SSW4.0 kmh SSW 2.9 mph4.7 kmh 30.14 in1020.7 mb 0.00 in0.0 mm 0.00 in0.0 mm 0.20 in5.1 mm
11:09 PM 47.1°F8.4°C 40.6°F4.8°C 78% 2.5 mph WNW4.0 kmh WNW 5.1 mph8.2 kmh 30.14 in1020.7 mb 0.00 in0.0 mm 0.00 in0.0 mm 0.20 in5.1 mm
11:11 PM 47.1°F8.4°C 40.6°F4.8°C 78% 2.5 mph W4.0 kmh W 4.7 mph7.6 kmh 30.14 in1020.7 mb 0.00 in0.0 mm 0.00 in0.0 mm 0.20 in5.1 mm
11:13 PM 47.1°F8.4°C 40.6°F4.8°C 78% 3.1 mph W5.0 kmh W 6.7 mph10.8 kmh 30.14 in1020.7 mb 0.00 in0.0 mm 0.00 in0.0 mm 0.20 in5.1 mm
11:15 PM 47.1°F8.4°C 40.6°F4.8°C 78% 3.4 mph SSE5.5 kmh SSE 11.0 mph17.7 kmh 30.14 in1020.7 mb 0.00 in0.0 mm 0.00 in0.0 mm 0.20 in5.1 mm
11:18 PM 47.1°F8.4°C 40.6°F4.8°C 78% 3.1 mph SW5.0 kmh SW 4.0 mph6.4 kmh 30.14 in1020.7 mb 0.00 in0.0 mm 0.00 in0.0 mm 0.20 in5.1 mm
11:20 PM 47.1°F8.4°C 40.6°F4.8°C 78% 3.1 mph WSW5.0 kmh WSW 5.4 mph8.7 kmh 30.15 in1021.0 mb 0.00 in0.0 mm 0.00 in0.0 mm 0.20 in5.1 mm
11:22 PM 47.1°F8.4°C 40.6°F4.8°C 78% 3.8 mph WNW6.1 kmh WNW 11.4 mph18.3 kmh 30.15 in1021.0 mb 0.00 in0.0 mm 0.00 in0.0 mm 0.20 in5.1 mm
11:24 PM 47.1°F8.4°C 40.6°F4.8°C 78% 4.5 mph NNW7.2 kmh NNW 9.4 mph15.1 kmh 30.15 in1021.0 mb 0.00 in0.0 mm 0.00 in0.0 mm 0.20 in5.1 mm
11:27 PM 47.1°F8.4°C 40.6°F4.8°C 78% 4.9 mph W7.9 kmh W 8.9 mph14.3 kmh 30.14 in1020.7 mb 0.00 in0.0 mm 0.00 in0.0 mm 0.20 in5.1 mm
11:29 PM 47.1°F8.4°C 40.6°F4.8°C 78% 4.0 mph WNW6.4 kmh WNW 3.8 mph6.1 kmh 30.14 in1020.7 mb 0.00 in0.0 mm 0.00 in0.0 mm 0.20 in5.1 mm
11:31 PM 47.1°F8.4°C 40.6°F4.8°C 78% 3.4 mph SE5.5 kmh SE 5.6 mph9.0 kmh 30.14 in1020.7 mb 0.00 in0.0 mm 0.00 in0.0 mm 0.20 in5.1 mm
11:33 PM 47.1°F8.4°C 40.6°F4.8°C 78% 5.1 mph WSW8.2 kmh WSW 13.9 mph22.4 kmh 30.14 in1020.7 mb 0.00 in0.0 mm 0.00 in0.0 mm 0.20 in5.1 mm
11:36 PM 46.9°F8.3°C 40.5°F4.7°C 78% 4.5 mph SSE7.2 kmh SSE 6.0 mph9.7 kmh 30.14 in1020.7 mb 0.00 in0.0 mm 0.00 in0.0 mm 0.20 in5.1 mm
11:38 PM 46.9°F8.3°C 40.8°F4.9°C 79% 4.0 mph WNW6.4 kmh WNW 7.2 mph11.6 kmh 30.14 in1020.7 mb 0.00 in0.0 mm 0.00 in0.0 mm 0.20 in5.1 mm
11:40 PM 46.9°F8.3°C 40.8°F4.9°C 79% 3.8 mph W6.1 kmh W 6.5 mph10.5 kmh 30.15 in1021.0 mb 0.00 in0.0 mm 0.00 in0.0 mm 0.20 in5.1 mm
11:42 PM 46.9°F8.3°C 40.8°F4.9°C 79% 3.4 mph WNW5.5 kmh WNW 4.7 mph7.6 kmh 30.14 in1020.7 mb 0.00 in0.0 mm 0.00 in0.0 mm 0.20 in5.1 mm
11:44 PM 46.9°F8.3°C 40.8°F4.9°C 79% 3.8 mph SW6.1 kmh SW 6.3 mph10.1 kmh 30.14 in1020.7 mb 0.00 in0.0 mm 0.00 in0.0 mm 0.20 in5.1 mm
11:46 PM 46.9°F8.3°C 40.8°F4.9°C 79% 4.3 mph W6.9 kmh W 6.7 mph10.8 kmh 30.14 in1020.7 mb 0.00 in0.0 mm 0.00 in0.0 mm 0.20 in5.1 mm
11:48 PM 46.9°F8.3°C 41.2°F5.1°C 80% 4.3 mph 6.9 kmh 7.6 mph12.2 kmh 30.13 in1020.3 mb 0.00 in0.0 mm 0.00 in0.0 mm 0.20 in5.1 mm
11:51 PM 46.9°F8.3°C 41.2°F5.1°C 80% 3.8 mph SW6.1 kmh SW 8.3 mph13.4 kmh 30.14 in1020.7 mb 0.00 in0.0 mm 0.00 in0.0 mm 0.20 in5.1 mm
11:53 PM 46.9°F8.3°C 41.2°F5.1°C 80% 3.6 mph W5.8 kmh W 5.6 mph9.0 kmh 30.14 in1020.7 mb 0.00 in0.0 mm 0.00 in0.0 mm 0.20 in5.1 mm
11:55 PM 46.8°F8.2°C 41.0°F5.0°C 80% 4.5 mph NW7.2 kmh NW 9.8 mph15.8 kmh 30.14 in1020.7 mb 0.00 in0.0 mm 0.00 in0.0 mm 0.20 in5.1 mm
11:57 PM 46.8°F8.2°C 41.0°F5.0°C 80% 4.3 mph SSW6.9 kmh SSW 6.9 mph11.1 kmh 30.13 in1020.3 mb 0.00 in0.0 mm 0.00 in0.0 mm 0.20 in5.1 mm
11:59 PM 46.6°F8.1°C 40.8°F4.9°C 80% 4.0 mph WNW6.4 kmh WNW 7.6 mph12.2 kmh 30.13 in1020.3 mb 0.00 in0.0 mm 0.00 in0.0 mm 0.20 in5.1 mm